<?xml version="1.0" encoding="UTF-8" standalone="no" ?>
<gpx xmlns="http://www.topografix.com/GPX/1/1" xmlns:xsi="http://www.w3.org/2001/XMLSchema-instance" xsi:schemaLocation="http://www.topografix.com/GPX/1/1 http://www.topografix.com/GPX/1/1/gpx.xsd" version="1.1" creator="VisuGPX - https://www.visugpx.com">
  <metadata>
    <name>2021-06-15ref. de l'Oule- lac de Leat    IBP102</name>
  </metadata>
  <trk>
    <name><![CDATA[2021-06-15 15:33:02]]></name>
    <trkseg>
      <trkpt lat="45.33543" lon="6.1197">
        <ele>1096.1</ele>
        <time>2021-06-15T06:56:44Z</time>
      </trkpt>
      <trkpt lat="45.33543" lon="6.1197">
        <ele>1096.12</ele>
        <time>2021-06-15T06:56:45Z</time>
      </trkpt>
      <trkpt lat="45.33537" lon="6.11971">
        <ele>1095.29</ele>
        <time>2021-06-15T06:57:16Z</time>
      </trkpt>
      <trkpt lat="45.33537" lon="6.11971">
        <ele>1095.19</ele>
        <time>2021-06-15T06:58:31Z</time>
      </trkpt>
      <trkpt lat="45.3353" lon="6.11977">
        <ele>1095.16</ele>
        <time>2021-06-15T06:59:22Z</time>
      </trkpt>
      <trkpt lat="45.33537" lon="6.11971">
        <ele>1095.98</ele>
        <time>2021-06-15T06:59:49Z</time>
      </trkpt>
      <trkpt lat="45.33526" lon="6.11974">
        <ele>1096.22</ele>
        <time>2021-06-15T07:00:06Z</time>
      </trkpt>
      <trkpt lat="45.33513" lon="6.11984">
        <ele>1097.54</ele>
        <time>2021-06-15T07:00:25Z</time>
      </trkpt>
      <trkpt lat="45.33506" lon="6.11992">
        <ele>1098.18</ele>
        <time>2021-06-15T07:00:35Z</time>
      </trkpt>
      <trkpt lat="45.33495" lon="6.12021">
        <ele>1098.44</ele>
        <time>2021-06-15T07:00:57Z</time>
      </trkpt>
      <trkpt lat="45.33489" lon="6.1203">
        <ele>1097.71</ele>
        <time>2021-06-15T07:01:14Z</time>
      </trkpt>
      <trkpt lat="45.33473" lon="6.12015">
        <ele>1097.24</ele>
        <time>2021-06-15T07:01:32Z</time>
      </trkpt>
      <trkpt lat="45.33465" lon="6.11995">
        <ele>1097.29</ele>
        <time>2021-06-15T07:01:48Z</time>
      </trkpt>
      <trkpt lat="45.33463" lon="6.11992">
        <ele>1097.57</ele>
        <time>2021-06-15T07:01:51Z</time>
      </trkpt>
      <trkpt lat="45.33449" lon="6.11987">
        <ele>1098.23</ele>
        <time>2021-06-15T07:02:04Z</time>
      </trkpt>
      <trkpt lat="45.33433" lon="6.1199">
        <ele>1098.28</ele>
        <time>2021-06-15T07:02:18Z</time>
      </trkpt>
      <trkpt lat="45.33413" lon="6.11999">
        <ele>1098.07</ele>
        <time>2021-06-15T07:02:37Z</time>
      </trkpt>
      <trkpt lat="45.33395" lon="6.12009">
        <ele>1097.49</ele>
        <time>2021-06-15T07:02:55Z</time>
      </trkpt>
      <trkpt lat="45.33374" lon="6.12019">
        <ele>1097.43</ele>
        <time>2021-06-15T07:03:14Z</time>
      </trkpt>
      <trkpt lat="45.33356" lon="6.1203">
        <ele>1096.92</ele>
        <time>2021-06-15T07:03:31Z</time>
      </trkpt>
      <trkpt lat="45.33334" lon="6.12044">
        <ele>1096.86</ele>
        <time>2021-06-15T07:03:53Z</time>
      </trkpt>
      <trkpt lat="45.33311" lon="6.12062">
        <ele>1096.49</ele>
        <time>2021-06-15T07:04:15Z</time>
      </trkpt>
      <trkpt lat="45.33298" lon="6.12077">
        <ele>1097.49</ele>
        <time>2021-06-15T07:04:32Z</time>
      </trkpt>
      <trkpt lat="45.33282" lon="6.12092">
        <ele>1097.34</ele>
        <time>2021-06-15T07:04:49Z</time>
      </trkpt>
      <trkpt lat="45.33264" lon="6.12106">
        <ele>1097.16</ele>
        <time>2021-06-15T07:05:07Z</time>
      </trkpt>
      <trkpt lat="45.33253" lon="6.12116">
        <ele>1097.86</ele>
        <time>2021-06-15T07:05:21Z</time>
      </trkpt>
      <trkpt lat="45.33244" lon="6.12128">
        <ele>1100.23</ele>
        <time>2021-06-15T07:05:38Z</time>
      </trkpt>
      <trkpt lat="45.33228" lon="6.12137">
        <ele>1102.19</ele>
        <time>2021-06-15T07:05:55Z</time>
      </trkpt>
      <trkpt lat="45.33206" lon="6.1214">
        <ele>1103.96</ele>
        <time>2021-06-15T07:06:14Z</time>
      </trkpt>
      <trkpt lat="45.33199" lon="6.12142">
        <ele>1104.61</ele>
        <time>2021-06-15T07:06:22Z</time>
      </trkpt>
      <trkpt lat="45.33183" lon="6.12145">
        <ele>1105.76</ele>
        <time>2021-06-15T07:06:43Z</time>
      </trkpt>
      <trkpt lat="45.33157" lon="6.12146">
        <ele>1108.12</ele>
        <time>2021-06-15T07:07:06Z</time>
      </trkpt>
      <trkpt lat="45.3314" lon="6.12147">
        <ele>1111.14</ele>
        <time>2021-06-15T07:07:28Z</time>
      </trkpt>
      <trkpt lat="45.3312" lon="6.12161">
        <ele>1112.61</ele>
        <time>2021-06-15T07:07:50Z</time>
      </trkpt>
      <trkpt lat="45.33094" lon="6.12163">
        <ele>1113.17</ele>
        <time>2021-06-15T07:08:13Z</time>
      </trkpt>
      <trkpt lat="45.33087" lon="6.12159">
        <ele>1115.4</ele>
        <time>2021-06-15T07:08:30Z</time>
      </trkpt>
      <trkpt lat="45.33076" lon="6.12156">
        <ele>1116.68</ele>
        <time>2021-06-15T07:08:46Z</time>
      </trkpt>
      <trkpt lat="45.33061" lon="6.12161">
        <ele>1119.78</ele>
        <time>2021-06-15T07:09:03Z</time>
      </trkpt>
      <trkpt lat="45.33042" lon="6.12172">
        <ele>1122.3</ele>
        <time>2021-06-15T07:09:26Z</time>
      </trkpt>
      <trkpt lat="45.33026" lon="6.1218">
        <ele>1124.17</ele>
        <time>2021-06-15T07:09:46Z</time>
      </trkpt>
      <trkpt lat="45.33012" lon="6.12191">
        <ele>1127.25</ele>
        <time>2021-06-15T07:10:06Z</time>
      </trkpt>
      <trkpt lat="45.33" lon="6.12209">
        <ele>1130.29</ele>
        <time>2021-06-15T07:10:29Z</time>
      </trkpt>
      <trkpt lat="45.32991" lon="6.12218">
        <ele>1132.54</ele>
        <time>2021-06-15T07:10:45Z</time>
      </trkpt>
      <trkpt lat="45.32977" lon="6.1223">
        <ele>1135.73</ele>
        <time>2021-06-15T07:11:07Z</time>
      </trkpt>
      <trkpt lat="45.32965" lon="6.12242">
        <ele>1138.76</ele>
        <time>2021-06-15T07:11:27Z</time>
      </trkpt>
      <trkpt lat="45.32952" lon="6.12257">
        <ele>1141.85</ele>
        <time>2021-06-15T07:11:51Z</time>
      </trkpt>
      <trkpt lat="45.32942" lon="6.12269">
        <ele>1144.85</ele>
        <time>2021-06-15T07:12:12Z</time>
      </trkpt>
      <trkpt lat="45.3293" lon="6.1228">
        <ele>1147.89</ele>
        <time>2021-06-15T07:12:31Z</time>
      </trkpt>
      <trkpt lat="45.3292" lon="6.12294">
        <ele>1151</ele>
        <time>2021-06-15T07:12:53Z</time>
      </trkpt>
      <trkpt lat="45.32911" lon="6.12308">
        <ele>1154.1</ele>
        <time>2021-06-15T07:13:15Z</time>
      </trkpt>
      <trkpt lat="45.32897" lon="6.1232">
        <ele>1156.86</ele>
        <time>2021-06-15T07:13:37Z</time>
      </trkpt>
      <trkpt lat="45.32887" lon="6.12337">
        <ele>1159.63</ele>
        <time>2021-06-15T07:13:59Z</time>
      </trkpt>
      <trkpt lat="45.32877" lon="6.12354">
        <ele>1162.17</ele>
        <time>2021-06-15T07:14:20Z</time>
      </trkpt>
      <trkpt lat="45.32866" lon="6.12366">
        <ele>1165.26</ele>
        <time>2021-06-15T07:14:42Z</time>
      </trkpt>
      <trkpt lat="45.32853" lon="6.12376">
        <ele>1168.27</ele>
        <time>2021-06-15T07:15:03Z</time>
      </trkpt>
      <trkpt lat="45.32839" lon="6.1238">
        <ele>1171.32</ele>
        <time>2021-06-15T07:15:25Z</time>
      </trkpt>
      <trkpt lat="45.32822" lon="6.12381">
        <ele>1174.03</ele>
        <time>2021-06-15T07:15:48Z</time>
      </trkpt>
      <trkpt lat="45.32811" lon="6.12388">
        <ele>1177.03</ele>
        <time>2021-06-15T07:16:10Z</time>
      </trkpt>
      <trkpt lat="45.328" lon="6.12391">
        <ele>1180.2</ele>
        <time>2021-06-15T07:16:29Z</time>
      </trkpt>
      <trkpt lat="45.32789" lon="6.12401">
        <ele>1182.31</ele>
        <time>2021-06-15T07:16:49Z</time>
      </trkpt>
      <trkpt lat="45.3278" lon="6.12412">
        <ele>1184.89</ele>
        <time>2021-06-15T07:17:07Z</time>
      </trkpt>
      <trkpt lat="45.32767" lon="6.12413">
        <ele>1187.75</ele>
        <time>2021-06-15T07:17:27Z</time>
      </trkpt>
      <trkpt lat="45.32755" lon="6.12416">
        <ele>1189.81</ele>
        <time>2021-06-15T07:17:44Z</time>
      </trkpt>
      <trkpt lat="45.32742" lon="6.12424">
        <ele>1192.46</ele>
        <time>2021-06-15T07:18:06Z</time>
      </trkpt>
      <trkpt lat="45.32736" lon="6.12435">
        <ele>1195.52</ele>
        <time>2021-06-15T07:18:26Z</time>
      </trkpt>
      <trkpt lat="45.32725" lon="6.12447">
        <ele>1197.22</ele>
        <time>2021-06-15T07:18:45Z</time>
      </trkpt>
      <trkpt lat="45.32716" lon="6.12456">
        <ele>1199.55</ele>
        <time>2021-06-15T07:19:06Z</time>
      </trkpt>
      <trkpt lat="45.32703" lon="6.12466">
        <ele>1202.53</ele>
        <time>2021-06-15T07:19:28Z</time>
      </trkpt>
      <trkpt lat="45.32692" lon="6.12477">
        <ele>1205.65</ele>
        <time>2021-06-15T07:19:53Z</time>
      </trkpt>
      <trkpt lat="45.32679" lon="6.12484">
        <ele>1208.75</ele>
        <time>2021-06-15T07:20:12Z</time>
      </trkpt>
      <trkpt lat="45.32678" lon="6.12497">
        <ele>1211.86</ele>
        <time>2021-06-15T07:20:34Z</time>
      </trkpt>
      <trkpt lat="45.32665" lon="6.12506">
        <ele>1213.28</ele>
        <time>2021-06-15T07:20:52Z</time>
      </trkpt>
      <trkpt lat="45.32653" lon="6.12514">
        <ele>1216.03</ele>
        <time>2021-06-15T07:21:09Z</time>
      </trkpt>
      <trkpt lat="45.32646" lon="6.12517">
        <ele>1218.3</ele>
        <time>2021-06-15T07:21:31Z</time>
      </trkpt>
      <trkpt lat="45.32641" lon="6.12525">
        <ele>1220.93</ele>
        <time>2021-06-15T07:21:49Z</time>
      </trkpt>
      <trkpt lat="45.32638" lon="6.12537">
        <ele>1222.8</ele>
        <time>2021-06-15T07:22:09Z</time>
      </trkpt>
      <trkpt lat="45.32628" lon="6.12546">
        <ele>1225.69</ele>
        <time>2021-06-15T07:22:29Z</time>
      </trkpt>
      <trkpt lat="45.3261" lon="6.12556">
        <ele>1228.41</ele>
        <time>2021-06-15T07:22:51Z</time>
      </trkpt>
      <trkpt lat="45.32608" lon="6.12558">
        <ele>1229.12</ele>
        <time>2021-06-15T07:22:57Z</time>
      </trkpt>
      <trkpt lat="45.32592" lon="6.12562">
        <ele>1232.14</ele>
        <time>2021-06-15T07:23:23Z</time>
      </trkpt>
      <trkpt lat="45.32581" lon="6.12561">
        <ele>1235.05</ele>
        <time>2021-06-15T07:23:44Z</time>
      </trkpt>
      <trkpt lat="45.32572" lon="6.12567">
        <ele>1238.14</ele>
        <time>2021-06-15T07:24:06Z</time>
      </trkpt>
      <trkpt lat="45.32562" lon="6.12574">
        <ele>1241.21</ele>
        <time>2021-06-15T07:24:25Z</time>
      </trkpt>
      <trkpt lat="45.32557" lon="6.12581">
        <ele>1243.01</ele>
        <time>2021-06-15T07:24:41Z</time>
      </trkpt>
      <trkpt lat="45.32549" lon="6.12587">
        <ele>1245.22</ele>
        <time>2021-06-15T07:24:57Z</time>
      </trkpt>
      <trkpt lat="45.32536" lon="6.12594">
        <ele>1247.79</ele>
        <time>2021-06-15T07:25:17Z</time>
      </trkpt>
      <trkpt lat="45.3253" lon="6.126">
        <ele>1250.07</ele>
        <time>2021-06-15T07:25:34Z</time>
      </trkpt>
      <trkpt lat="45.32517" lon="6.12604">
        <ele>1253.11</ele>
        <time>2021-06-15T07:25:57Z</time>
      </trkpt>
      <trkpt lat="45.32507" lon="6.12614">
        <ele>1256.14</ele>
        <time>2021-06-15T07:26:20Z</time>
      </trkpt>
      <trkpt lat="45.32501" lon="6.12622">
        <ele>1258.39</ele>
        <time>2021-06-15T07:26:36Z</time>
      </trkpt>
      <trkpt lat="45.32494" lon="6.12628">
        <ele>1261.31</ele>
        <time>2021-06-15T07:26:56Z</time>
      </trkpt>
      <trkpt lat="45.32488" lon="6.12637">
        <ele>1264.02</ele>
        <time>2021-06-15T07:27:15Z</time>
      </trkpt>
      <trkpt lat="45.32481" lon="6.12642">
        <ele>1266.26</ele>
        <time>2021-06-15T07:27:34Z</time>
      </trkpt>
      <trkpt lat="45.32471" lon="6.12645">
        <ele>1269.29</ele>
        <time>2021-06-15T07:27:54Z</time>
      </trkpt>
      <trkpt lat="45.32461" lon="6.1265">
        <ele>1271.45</ele>
        <time>2021-06-15T07:28:14Z</time>
      </trkpt>
      <trkpt lat="45.32453" lon="6.12651">
        <ele>1273.12</ele>
        <time>2021-06-15T07:28:28Z</time>
      </trkpt>
      <trkpt lat="45.32445" lon="6.12645">
        <ele>1274.57</ele>
        <time>2021-06-15T07:28:44Z</time>
      </trkpt>
      <trkpt lat="45.32438" lon="6.1265">
        <ele>1276.69</ele>
        <time>2021-06-15T07:29:04Z</time>
      </trkpt>
      <trkpt lat="45.32417" lon="6.12646">
        <ele>1279.49</ele>
        <time>2021-06-15T07:29:29Z</time>
      </trkpt>
      <trkpt lat="45.32405" lon="6.12645">
        <ele>1281.47</ele>
        <time>2021-06-15T07:29:50Z</time>
      </trkpt>
      <trkpt lat="45.32398" lon="6.12638">
        <ele>1284.11</ele>
        <time>2021-06-15T07:30:08Z</time>
      </trkpt>
      <trkpt lat="45.32391" lon="6.1263">
        <ele>1285.07</ele>
        <time>2021-06-15T07:30:27Z</time>
      </trkpt>
      <trkpt lat="45.32377" lon="6.12631">
        <ele>1287.33</ele>
        <time>2021-06-15T07:30:48Z</time>
      </trkpt>
      <trkpt lat="45.32371" lon="6.12634">
        <ele>1289.52</ele>
        <time>2021-06-15T07:31:04Z</time>
      </trkpt>
      <trkpt lat="45.32361" lon="6.12637">
        <ele>1291.76</ele>
        <time>2021-06-15T07:31:25Z</time>
      </trkpt>
      <trkpt lat="45.32354" lon="6.12632">
        <ele>1294.75</ele>
        <time>2021-06-15T07:31:46Z</time>
      </trkpt>
      <trkpt lat="45.32347" lon="6.12638">
        <ele>1296.98</ele>
        <time>2021-06-15T07:32:03Z</time>
      </trkpt>
      <trkpt lat="45.32339" lon="6.1264">
        <ele>1299.62</ele>
        <time>2021-06-15T07:32:24Z</time>
      </trkpt>
      <trkpt lat="45.32329" lon="6.12644">
        <ele>1301.76</ele>
        <time>2021-06-15T07:32:43Z</time>
      </trkpt>
      <trkpt lat="45.32319" lon="6.12645">
        <ele>1304.44</ele>
        <time>2021-06-15T07:33:04Z</time>
      </trkpt>
      <trkpt lat="45.32312" lon="6.12647">
        <ele>1306.44</ele>
        <time>2021-06-15T07:33:17Z</time>
      </trkpt>
      <trkpt lat="45.32308" lon="6.1265">
        <ele>1308.98</ele>
        <time>2021-06-15T07:33:37Z</time>
      </trkpt>
      <trkpt lat="45.32299" lon="6.12657">
        <ele>1310.7</ele>
        <time>2021-06-15T07:33:54Z</time>
      </trkpt>
      <trkpt lat="45.32295" lon="6.12662">
        <ele>1312.93</ele>
        <time>2021-06-15T07:34:13Z</time>
      </trkpt>
      <trkpt lat="45.32287" lon="6.12667">
        <ele>1316.07</ele>
        <time>2021-06-15T07:34:35Z</time>
      </trkpt>
      <trkpt lat="45.32286" lon="6.12667">
        <ele>1316.21</ele>
        <time>2021-06-15T07:34:36Z</time>
      </trkpt>
      <trkpt lat="45.32279" lon="6.12667">
        <ele>1317.99</ele>
        <time>2021-06-15T07:34:49Z</time>
      </trkpt>
      <trkpt lat="45.32279" lon="6.12672">
        <ele>1318.68</ele>
        <time>2021-06-15T07:34:55Z</time>
      </trkpt>
      <trkpt lat="45.32275" lon="6.12682">
        <ele>1320.05</ele>
        <time>2021-06-15T07:35:08Z</time>
      </trkpt>
      <trkpt lat="45.32273" lon="6.12688">
        <ele>1321.32</ele>
        <time>2021-06-15T07:35:17Z</time>
      </trkpt>
      <trkpt lat="45.3226" lon="6.12702">
        <ele>1324.44</ele>
        <time>2021-06-15T07:35:44Z</time>
      </trkpt>
      <trkpt lat="45.32257" lon="6.12714">
        <ele>1326.91</ele>
        <time>2021-06-15T07:36:00Z</time>
      </trkpt>
      <trkpt lat="45.32252" lon="6.12722">
        <ele>1329.23</ele>
        <time>2021-06-15T07:36:13Z</time>
      </trkpt>
      <trkpt lat="45.32245" lon="6.12718">
        <ele>1331.02</ele>
        <time>2021-06-15T07:36:26Z</time>
      </trkpt>
      <trkpt lat="45.32242" lon="6.12734">
        <ele>1334.16</ele>
        <time>2021-06-15T07:36:49Z</time>
      </trkpt>
      <trkpt lat="45.32235" lon="6.12745">
        <ele>1337.18</ele>
        <time>2021-06-15T07:37:12Z</time>
      </trkpt>
      <trkpt lat="45.3222" lon="6.12756">
        <ele>1340.26</ele>
        <time>2021-06-15T07:37:39Z</time>
      </trkpt>
      <trkpt lat="45.3221" lon="6.12762">
        <ele>1343.34</ele>
        <time>2021-06-15T07:38:02Z</time>
      </trkpt>
      <trkpt lat="45.32205" lon="6.12766">
        <ele>1344.53</ele>
        <time>2021-06-15T07:38:10Z</time>
      </trkpt>
      <trkpt lat="45.3219" lon="6.12781">
        <ele>1347.68</ele>
        <time>2021-06-15T07:38:46Z</time>
      </trkpt>
      <trkpt lat="45.32175" lon="6.12781">
        <ele>1350.7</ele>
        <time>2021-06-15T07:39:10Z</time>
      </trkpt>
      <trkpt lat="45.32171" lon="6.12783">
        <ele>1351.46</ele>
        <time>2021-06-15T07:39:17Z</time>
      </trkpt>
      <trkpt lat="45.32161" lon="6.1279">
        <ele>1354.35</ele>
        <time>2021-06-15T07:39:39Z</time>
      </trkpt>
      <trkpt lat="45.32152" lon="6.12804">
        <ele>1357.58</ele>
        <time>2021-06-15T07:40:06Z</time>
      </trkpt>
      <trkpt lat="45.32143" lon="6.12812">
        <ele>1359.99</ele>
        <time>2021-06-15T07:40:23Z</time>
      </trkpt>
      <trkpt lat="45.3214" lon="6.12814">
        <ele>1361.47</ele>
        <time>2021-06-15T07:40:35Z</time>
      </trkpt>
      <trkpt lat="45.32141" lon="6.12817">
        <ele>1361.72</ele>
        <time>2021-06-15T07:40:37Z</time>
      </trkpt>
      <trkpt lat="45.32143" lon="6.12825">
        <ele>1363.27</ele>
        <time>2021-06-15T07:40:55Z</time>
      </trkpt>
      <trkpt lat="45.3215" lon="6.12837">
        <ele>1365.33</ele>
        <time>2021-06-15T07:41:14Z</time>
      </trkpt>
      <trkpt lat="45.32151" lon="6.12845">
        <ele>1367.82</ele>
        <time>2021-06-15T07:41:31Z</time>
      </trkpt>
      <trkpt lat="45.32154" lon="6.12853">
        <ele>1370.6</ele>
        <time>2021-06-15T07:41:50Z</time>
      </trkpt>
      <trkpt lat="45.32156" lon="6.12863">
        <ele>1372.99</ele>
        <time>2021-06-15T07:42:10Z</time>
      </trkpt>
      <trkpt lat="45.32149" lon="6.12864">
        <ele>1374.99</ele>
        <time>2021-06-15T07:42:26Z</time>
      </trkpt>
      <trkpt lat="45.32145" lon="6.12862">
        <ele>1377.38</ele>
        <time>2021-06-15T07:42:40Z</time>
      </trkpt>
      <trkpt lat="45.32136" lon="6.12864">
        <ele>1379.79</ele>
        <time>2021-06-15T07:43:00Z</time>
      </trkpt>
      <trkpt lat="45.32132" lon="6.12867">
        <ele>1381.25</ele>
        <time>2021-06-15T07:43:15Z</time>
      </trkpt>
      <trkpt lat="45.32126" lon="6.12868">
        <ele>1383.97</ele>
        <time>2021-06-15T07:43:37Z</time>
      </trkpt>
      <trkpt lat="45.32123" lon="6.12865">
        <ele>1384.02</ele>
        <time>2021-06-15T07:44:12Z</time>
      </trkpt>
      <trkpt lat="45.3213" lon="6.12862">
        <ele>1384.12</ele>
        <time>2021-06-15T07:44:40Z</time>
      </trkpt>
      <trkpt lat="45.32132" lon="6.12862">
        <ele>1383.94</ele>
        <time>2021-06-15T07:45:22Z</time>
      </trkpt>
      <trkpt lat="45.32133" lon="6.12861">
        <ele>1383.98</ele>
        <time>2021-06-15T07:45:55Z</time>
      </trkpt>
      <trkpt lat="45.32131" lon="6.12861">
        <ele>1383.75</ele>
        <time>2021-06-15T07:46:19Z</time>
      </trkpt>
      <trkpt lat="45.32135" lon="6.1286">
        <ele>1383.76</ele>
        <time>2021-06-15T07:46:55Z</time>
      </trkpt>
      <trkpt lat="45.32135" lon="6.12859">
        <ele>1384.04</ele>
        <time>2021-06-15T07:47:18Z</time>
      </trkpt>
      <trkpt lat="45.3213" lon="6.12859">
        <ele>1383.98</ele>
        <time>2021-06-15T07:47:49Z</time>
      </trkpt>
      <trkpt lat="45.3213" lon="6.12857">
        <ele>1383.99</ele>
        <time>2021-06-15T07:48:23Z</time>
      </trkpt>
      <trkpt lat="45.32127" lon="6.1286">
        <ele>1384.47</ele>
        <time>2021-06-15T07:49:00Z</time>
      </trkpt>
      <trkpt lat="45.32111" lon="6.12864">
        <ele>1387.52</ele>
        <time>2021-06-15T07:49:21Z</time>
      </trkpt>
      <trkpt lat="45.32103" lon="6.12866">
        <ele>1389.3</ele>
        <time>2021-06-15T07:49:35Z</time>
      </trkpt>
      <trkpt lat="45.32098" lon="6.12867">
        <ele>1390.29</ele>
        <time>2021-06-15T07:49:42Z</time>
      </trkpt>
      <trkpt lat="45.32092" lon="6.12868">
        <ele>1391.45</ele>
        <time>2021-06-15T07:49:53Z</time>
      </trkpt>
      <trkpt lat="45.32086" lon="6.12874">
        <ele>1392.95</ele>
        <time>2021-06-15T07:50:07Z</time>
      </trkpt>
      <trkpt lat="45.32081" lon="6.12873">
        <ele>1393.87</ele>
        <time>2021-06-15T07:50:17Z</time>
      </trkpt>
      <trkpt lat="45.32076" lon="6.12877">
        <ele>1395.25</ele>
        <time>2021-06-15T07:50:29Z</time>
      </trkpt>
      <trkpt lat="45.32067" lon="6.1288">
        <ele>1397.27</ele>
        <time>2021-06-15T07:50:43Z</time>
      </trkpt>
      <trkpt lat="45.32058" lon="6.12883">
        <ele>1399.2</ele>
        <time>2021-06-15T07:50:57Z</time>
      </trkpt>
      <trkpt lat="45.32053" lon="6.12886">
        <ele>1400.93</ele>
        <time>2021-06-15T07:51:10Z</time>
      </trkpt>
      <trkpt lat="45.32044" lon="6.12892">
        <ele>1403.97</ele>
        <time>2021-06-15T07:51:29Z</time>
      </trkpt>
      <trkpt lat="45.32034" lon="6.12902">
        <ele>1406.96</ele>
        <time>2021-06-15T07:51:51Z</time>
      </trkpt>
      <trkpt lat="45.32027" lon="6.12905">
        <ele>1408.66</ele>
        <time>2021-06-15T07:52:04Z</time>
      </trkpt>
      <trkpt lat="45.3202" lon="6.12909">
        <ele>1410.29</ele>
        <time>2021-06-15T07:52:17Z</time>
      </trkpt>
      <trkpt lat="45.32018" lon="6.12913">
        <ele>1411.24</ele>
        <time>2021-06-15T07:52:24Z</time>
      </trkpt>
      <trkpt lat="45.32005" lon="6.12921">
        <ele>1414.37</ele>
        <time>2021-06-15T07:52:46Z</time>
      </trkpt>
      <trkpt lat="45.32" lon="6.12937">
        <ele>1417.39</ele>
        <time>2021-06-15T07:53:09Z</time>
      </trkpt>
      <trkpt lat="45.31995" lon="6.12952">
        <ele>1420.22</ele>
        <time>2021-06-15T07:53:33Z</time>
      </trkpt>
      <trkpt lat="45.31995" lon="6.12964">
        <ele>1423.3</ele>
        <time>2021-06-15T07:53:53Z</time>
      </trkpt>
      <trkpt lat="45.3199" lon="6.12977">
        <ele>1426.21</ele>
        <time>2021-06-15T07:54:14Z</time>
      </trkpt>
      <trkpt lat="45.31987" lon="6.12986">
        <ele>1428.68</ele>
        <time>2021-06-15T07:54:34Z</time>
      </trkpt>
      <trkpt lat="45.31987" lon="6.12995">
        <ele>1431.72</ele>
        <time>2021-06-15T07:54:54Z</time>
      </trkpt>
      <trkpt lat="45.31984" lon="6.13005">
        <ele>1434.82</ele>
        <time>2021-06-15T07:55:13Z</time>
      </trkpt>
      <trkpt lat="45.31983" lon="6.13015">
        <ele>1437.85</ele>
        <time>2021-06-15T07:55:32Z</time>
      </trkpt>
      <trkpt lat="45.31981" lon="6.13027">
        <ele>1440.36</ele>
        <time>2021-06-15T07:55:48Z</time>
      </trkpt>
      <trkpt lat="45.31976" lon="6.13037">
        <ele>1442.04</ele>
        <time>2021-06-15T07:56:04Z</time>
      </trkpt>
      <trkpt lat="45.3197" lon="6.13043">
        <ele>1443.91</ele>
        <time>2021-06-15T07:56:18Z</time>
      </trkpt>
      <trkpt lat="45.31965" lon="6.13054">
        <ele>1445.32</ele>
        <time>2021-06-15T07:56:33Z</time>
      </trkpt>
      <trkpt lat="45.31959" lon="6.13064">
        <ele>1446.4</ele>
        <time>2021-06-15T07:56:48Z</time>
      </trkpt>
      <trkpt lat="45.31953" lon="6.13071">
        <ele>1448.41</ele>
        <time>2021-06-15T07:57:05Z</time>
      </trkpt>
      <trkpt lat="45.31954" lon="6.13083">
        <ele>1450.56</ele>
        <time>2021-06-15T07:57:22Z</time>
      </trkpt>
      <trkpt lat="45.3196" lon="6.13099">
        <ele>1453.63</ele>
        <time>2021-06-15T07:57:48Z</time>
      </trkpt>
      <trkpt lat="45.31958" lon="6.131">
        <ele>1456.06</ele>
        <time>2021-06-15T07:58:12Z</time>
      </trkpt>
      <trkpt lat="45.31955" lon="6.13107">
        <ele>1457.38</ele>
        <time>2021-06-15T07:58:31Z</time>
      </trkpt>
      <trkpt lat="45.31954" lon="6.13114">
        <ele>1458.52</ele>
        <time>2021-06-15T07:58:50Z</time>
      </trkpt>
      <trkpt lat="45.31955" lon="6.13125">
        <ele>1459.29</ele>
        <time>2021-06-15T07:59:10Z</time>
      </trkpt>
      <trkpt lat="45.31947" lon="6.13124">
        <ele>1460.66</ele>
        <time>2021-06-15T07:59:31Z</time>
      </trkpt>
      <trkpt lat="45.31945" lon="6.13129">
        <ele>1461.79</ele>
        <time>2021-06-15T07:59:51Z</time>
      </trkpt>
      <trkpt lat="45.31949" lon="6.13138">
        <ele>1464.08</ele>
        <time>2021-06-15T08:00:09Z</time>
      </trkpt>
      <trkpt lat="45.31953" lon="6.13149">
        <ele>1466.79</ele>
        <time>2021-06-15T08:00:26Z</time>
      </trkpt>
      <trkpt lat="45.31953" lon="6.13157">
        <ele>1469.67</ele>
        <time>2021-06-15T08:00:49Z</time>
      </trkpt>
      <trkpt lat="45.31962" lon="6.1317">
        <ele>1472.83</ele>
        <time>2021-06-15T08:01:12Z</time>
      </trkpt>
      <trkpt lat="45.31961" lon="6.13175">
        <ele>1475.65</ele>
        <time>2021-06-15T08:01:30Z</time>
      </trkpt>
      <trkpt lat="45.31957" lon="6.13186">
        <ele>1477.93</ele>
        <time>2021-06-15T08:01:49Z</time>
      </trkpt>
      <trkpt lat="45.31959" lon="6.132">
        <ele>1480.5</ele>
        <time>2021-06-15T08:02:14Z</time>
      </trkpt>
      <trkpt lat="45.31956" lon="6.132">
        <ele>1481.53</ele>
        <time>2021-06-15T08:02:21Z</time>
      </trkpt>
      <trkpt lat="45.31945" lon="6.132">
        <ele>1483.46</ele>
        <time>2021-06-15T08:02:37Z</time>
      </trkpt>
      <trkpt lat="45.31945" lon="6.132">
        <ele>1483.73</ele>
        <time>2021-06-15T08:02:39Z</time>
      </trkpt>
      <trkpt lat="45.31944" lon="6.132">
        <ele>1484.92</ele>
        <time>2021-06-15T08:02:47Z</time>
      </trkpt>
      <trkpt lat="45.31938" lon="6.13195">
        <ele>1485.77</ele>
        <time>2021-06-15T08:02:54Z</time>
      </trkpt>
      <trkpt lat="45.31937" lon="6.13201">
        <ele>1487.17</ele>
        <time>2021-06-15T08:03:06Z</time>
      </trkpt>
      <trkpt lat="45.31937" lon="6.13204">
        <ele>1488.03</ele>
        <time>2021-06-15T08:03:13Z</time>
      </trkpt>
      <trkpt lat="45.31935" lon="6.13206">
        <ele>1488.47</ele>
        <time>2021-06-15T08:03:16Z</time>
      </trkpt>
      <trkpt lat="45.31929" lon="6.13215">
        <ele>1491.8</ele>
        <time>2021-06-15T08:03:38Z</time>
      </trkpt>
      <trkpt lat="45.31928" lon="6.13224">
        <ele>1494.92</ele>
        <time>2021-06-15T08:03:57Z</time>
      </trkpt>
      <trkpt lat="45.3193" lon="6.1323">
        <ele>1497.94</ele>
        <time>2021-06-15T08:04:15Z</time>
      </trkpt>
      <trkpt lat="45.31932" lon="6.13233">
        <ele>1499.32</ele>
        <time>2021-06-15T08:04:27Z</time>
      </trkpt>
      <trkpt lat="45.31934" lon="6.13235">
        <ele>1500.96</ele>
        <time>2021-06-15T08:04:43Z</time>
      </trkpt>
      <trkpt lat="45.31942" lon="6.13238">
        <ele>1502.18</ele>
        <time>2021-06-15T08:04:53Z</time>
      </trkpt>
      <trkpt lat="45.31943" lon="6.13237">
        <ele>1502.26</ele>
        <time>2021-06-15T08:04:55Z</time>
      </trkpt>
      <trkpt lat="45.3195" lon="6.13241">
        <ele>1504.97</ele>
        <time>2021-06-15T08:05:19Z</time>
      </trkpt>
      <trkpt lat="45.31949" lon="6.13241">
        <ele>1506.58</ele>
        <time>2021-06-15T08:05:31Z</time>
      </trkpt>
      <trkpt lat="45.31969" lon="6.13257">
        <ele>1509.77</ele>
        <time>2021-06-15T08:05:56Z</time>
      </trkpt>
      <trkpt lat="45.3199" lon="6.13268">
        <ele>1512.78</ele>
        <time>2021-06-15T08:06:16Z</time>
      </trkpt>
      <trkpt lat="45.31999" lon="6.13271">
        <ele>1514.52</ele>
        <time>2021-06-15T08:06:33Z</time>
      </trkpt>
      <trkpt lat="45.32007" lon="6.13278">
        <ele>1517.44</ele>
        <time>2021-06-15T08:06:55Z</time>
      </trkpt>
      <trkpt lat="45.32005" lon="6.13285">
        <ele>1520.61</ele>
        <time>2021-06-15T08:07:14Z</time>
      </trkpt>
      <trkpt lat="45.32005" lon="6.13286">
        <ele>1520.94</ele>
        <time>2021-06-15T08:07:17Z</time>
      </trkpt>
      <trkpt lat="45.31998" lon="6.13289">
        <ele>1522.38</ele>
        <time>2021-06-15T08:07:27Z</time>
      </trkpt>
      <trkpt lat="45.31991" lon="6.13295">
        <ele>1524.91</ele>
        <time>2021-06-15T08:07:45Z</time>
      </trkpt>
      <trkpt lat="45.3199" lon="6.13295">
        <ele>1525.02</ele>
        <time>2021-06-15T08:07:46Z</time>
      </trkpt>
      <trkpt lat="45.31988" lon="6.13301">
        <ele>1526.46</ele>
        <time>2021-06-15T08:07:58Z</time>
      </trkpt>
      <trkpt lat="45.31992" lon="6.13299">
        <ele>1528.51</ele>
        <time>2021-06-15T08:08:14Z</time>
      </trkpt>
      <trkpt lat="45.31994" lon="6.13304">
        <ele>1529.6</ele>
        <time>2021-06-15T08:08:20Z</time>
      </trkpt>
      <trkpt lat="45.3199" lon="6.13311">
        <ele>1531.2</ele>
        <time>2021-06-15T08:08:33Z</time>
      </trkpt>
      <trkpt lat="45.31982" lon="6.13317">
        <ele>1532.55</ele>
        <time>2021-06-15T08:08:46Z</time>
      </trkpt>
      <trkpt lat="45.3198" lon="6.13317">
        <ele>1532.97</ele>
        <time>2021-06-15T08:08:49Z</time>
      </trkpt>
      <trkpt lat="45.31985" lon="6.13325">
        <ele>1536.18</ele>
        <time>2021-06-15T08:09:12Z</time>
      </trkpt>
      <trkpt lat="45.31984" lon="6.13327">
        <ele>1536.64</ele>
        <time>2021-06-15T08:09:16Z</time>
      </trkpt>
      <trkpt lat="45.31987" lon="6.13332">
        <ele>1538.02</ele>
        <time>2021-06-15T08:09:27Z</time>
      </trkpt>
      <trkpt lat="45.31988" lon="6.13333">
        <ele>1538.17</ele>
        <time>2021-06-15T08:09:29Z</time>
      </trkpt>
      <trkpt lat="45.3198" lon="6.13336">
        <ele>1541.45</ele>
        <time>2021-06-15T08:09:52Z</time>
      </trkpt>
      <trkpt lat="45.31979" lon="6.13342">
        <ele>1542.71</ele>
        <time>2021-06-15T08:10:03Z</time>
      </trkpt>
      <trkpt lat="45.31965" lon="6.13341">
        <ele>1544.15</ele>
        <time>2021-06-15T08:10:16Z</time>
      </trkpt>
      <trkpt lat="45.3196" lon="6.1334">
        <ele>1544.51</ele>
        <time>2021-06-15T08:10:21Z</time>
      </trkpt>
      <trkpt lat="45.31944" lon="6.13331">
        <ele>1546.53</ele>
        <time>2021-06-15T08:10:39Z</time>
      </trkpt>
      <trkpt lat="45.31928" lon="6.13327">
        <ele>1548.89</ele>
        <time>2021-06-15T08:10:56Z</time>
      </trkpt>
      <trkpt lat="45.31921" lon="6.13324">
        <ele>1549.74</ele>
        <time>2021-06-15T08:11:02Z</time>
      </trkpt>
      <trkpt lat="45.31911" lon="6.13322">
        <ele>1550.52</ele>
        <time>2021-06-15T08:11:07Z</time>
      </trkpt>
      <trkpt lat="45.31904" lon="6.1332">
        <ele>1551.31</ele>
        <time>2021-06-15T08:11:11Z</time>
      </trkpt>
      <trkpt lat="45.31909" lon="6.13327">
        <ele>1553.62</ele>
        <time>2021-06-15T08:11:24Z</time>
      </trkpt>
      <trkpt lat="45.31912" lon="6.13328">
        <ele>1553.82</ele>
        <time>2021-06-15T08:11:27Z</time>
      </trkpt>
      <trkpt lat="45.31908" lon="6.13324">
        <ele>1553.92</ele>
        <time>2021-06-15T08:11:31Z</time>
      </trkpt>
      <trkpt lat="45.31902" lon="6.13322">
        <ele>1554.03</ele>
        <time>2021-06-15T08:11:42Z</time>
      </trkpt>
      <trkpt lat="45.319" lon="6.13321">
        <ele>1554.01</ele>
        <time>2021-06-15T08:11:45Z</time>
      </trkpt>
      <trkpt lat="45.31895" lon="6.13322">
        <ele>1554.02</ele>
        <time>2021-06-15T08:11:49Z</time>
      </trkpt>
      <trkpt lat="45.31891" lon="6.13321">
        <ele>1554.17</ele>
        <time>2021-06-15T08:11:54Z</time>
      </trkpt>
      <trkpt lat="45.31887" lon="6.1332">
        <ele>1554.52</ele>
        <time>2021-06-15T08:12:00Z</time>
      </trkpt>
      <trkpt lat="45.31885" lon="6.1332">
        <ele>1554.66</ele>
        <time>2021-06-15T08:12:02Z</time>
      </trkpt>
      <trkpt lat="45.31871" lon="6.1332">
        <ele>1556.07</ele>
        <time>2021-06-15T08:12:13Z</time>
      </trkpt>
      <trkpt lat="45.3186" lon="6.13315">
        <ele>1556.44</ele>
        <time>2021-06-15T08:12:17Z</time>
      </trkpt>
      <trkpt lat="45.31847" lon="6.13316">
        <ele>1556.25</ele>
        <time>2021-06-15T08:12:36Z</time>
      </trkpt>
      <trkpt lat="45.31832" lon="6.13314">
        <ele>1556.84</ele>
        <time>2021-06-15T08:12:45Z</time>
      </trkpt>
      <trkpt lat="45.31823" lon="6.13313">
        <ele>1557.68</ele>
        <time>2021-06-15T08:12:52Z</time>
      </trkpt>
      <trkpt lat="45.31814" lon="6.13311">
        <ele>1559.43</ele>
        <time>2021-06-15T08:13:03Z</time>
      </trkpt>
      <trkpt lat="45.31813" lon="6.1331">
        <ele>1559.66</ele>
        <time>2021-06-15T08:13:04Z</time>
      </trkpt>
      <trkpt lat="45.31808" lon="6.13306">
        <ele>1560.06</ele>
        <time>2021-06-15T08:13:10Z</time>
      </trkpt>
      <trkpt lat="45.31806" lon="6.13304">
        <ele>1559.71</ele>
        <time>2021-06-15T08:13:17Z</time>
      </trkpt>
      <trkpt lat="45.3181" lon="6.13308">
        <ele>1559.71</ele>
        <time>2021-06-15T08:13:26Z</time>
      </trkpt>
      <trkpt lat="45.31804" lon="6.13306">
        <ele>1560.23</ele>
        <time>2021-06-15T08:13:31Z</time>
      </trkpt>
      <trkpt lat="45.31801" lon="6.13304">
        <ele>1560.89</ele>
        <time>2021-06-15T08:13:35Z</time>
      </trkpt>
      <trkpt lat="45.31794" lon="6.13303">
        <ele>1561.29</ele>
        <time>2021-06-15T08:13:43Z</time>
      </trkpt>
      <trkpt lat="45.31792" lon="6.13302">
        <ele>1561.39</ele>
        <time>2021-06-15T08:13:46Z</time>
      </trkpt>
      <trkpt lat="45.31807" lon="6.13312">
        <ele>1562.35</ele>
        <time>2021-06-15T08:13:58Z</time>
      </trkpt>
      <trkpt lat="45.31794" lon="6.13307">
        <ele>1564.17</ele>
        <time>2021-06-15T08:14:21Z</time>
      </trkpt>
      <trkpt lat="45.31794" lon="6.13307">
        <ele>1564.19</ele>
        <time>2021-06-15T08:14:22Z</time>
      </trkpt>
      <trkpt lat="45.31784" lon="6.1331">
        <ele>1565.06</ele>
        <time>2021-06-15T08:14:39Z</time>
      </trkpt>
      <trkpt lat="45.31794" lon="6.13316">
        <ele>1566.95</ele>
        <time>2021-06-15T08:15:10Z</time>
      </trkpt>
      <trkpt lat="45.31792" lon="6.13317">
        <ele>1567.03</ele>
        <time>2021-06-15T08:15:22Z</time>
      </trkpt>
      <trkpt lat="45.31792" lon="6.13319">
        <ele>1567.25</ele>
        <time>2021-06-15T08:15:29Z</time>
      </trkpt>
      <trkpt lat="45.31781" lon="6.13315">
        <ele>1568.01</ele>
        <time>2021-06-15T08:16:01Z</time>
      </trkpt>
      <trkpt lat="45.31781" lon="6.13314">
        <ele>1567.97</ele>
        <time>2021-06-15T08:16:11Z</time>
      </trkpt>
      <trkpt lat="45.31783" lon="6.13315">
        <ele>1567.78</ele>
        <time>2021-06-15T08:16:14Z</time>
      </trkpt>
      <trkpt lat="45.3178" lon="6.13312">
        <ele>1567.72</ele>
        <time>2021-06-15T08:16:17Z</time>
      </trkpt>
      <trkpt lat="45.3178" lon="6.13309">
        <ele>1567.71</ele>
        <time>2021-06-15T08:16:21Z</time>
      </trkpt>
      <trkpt lat="45.31769" lon="6.13304">
        <ele>1568.07</ele>
        <time>2021-06-15T08:16:30Z</time>
      </trkpt>
      <trkpt lat="45.31767" lon="6.13302">
        <ele>1568.45</ele>
        <time>2021-06-15T08:16:32Z</time>
      </trkpt>
      <trkpt lat="45.31769" lon="6.13302">
        <ele>1569.87</ele>
        <time>2021-06-15T08:16:37Z</time>
      </trkpt>
      <trkpt lat="45.31774" lon="6.13303">
        <ele>1571.49</ele>
        <time>2021-06-15T08:16:46Z</time>
      </trkpt>
      <trkpt lat="45.31785" lon="6.13306">
        <ele>1571.54</ele>
        <time>2021-06-15T08:17:07Z</time>
      </trkpt>
      <trkpt lat="45.31795" lon="6.13309">
        <ele>1571.49</ele>
        <time>2021-06-15T08:17:18Z</time>
      </trkpt>
      <trkpt lat="45.318" lon="6.13308">
        <ele>1571.43</ele>
        <time>2021-06-15T08:17:42Z</time>
      </trkpt>
      <trkpt lat="45.31796" lon="6.1331">
        <ele>1572.75</ele>
        <time>2021-06-15T08:18:01Z</time>
      </trkpt>
      <trkpt lat="45.31791" lon="6.13315">
        <ele>1574.82</ele>
        <time>2021-06-15T08:18:14Z</time>
      </trkpt>
      <trkpt lat="45.3179" lon="6.13316">
        <ele>1575.73</ele>
        <time>2021-06-15T08:18:19Z</time>
      </trkpt>
      <trkpt lat="45.3178" lon="6.13313">
        <ele>1577.54</ele>
        <time>2021-06-15T08:18:33Z</time>
      </trkpt>
      <trkpt lat="45.31781" lon="6.13314">
        <ele>1577.66</ele>
        <time>2021-06-15T08:18:40Z</time>
      </trkpt>
      <trkpt lat="45.3178" lon="6.13312">
        <ele>1577.35</ele>
        <time>2021-06-15T08:18:44Z</time>
      </trkpt>
      <trkpt lat="45.31773" lon="6.13303">
        <ele>1577.15</ele>
        <time>2021-06-15T08:18:53Z</time>
      </trkpt>
      <trkpt lat="45.31774" lon="6.13301">
        <ele>1577.17</ele>
        <time>2021-06-15T08:18:55Z</time>
      </trkpt>
      <trkpt lat="45.31778" lon="6.13293">
        <ele>1578.14</ele>
        <time>2021-06-15T08:19:18Z</time>
      </trkpt>
      <trkpt lat="45.31775" lon="6.13287">
        <ele>1578.59</ele>
        <time>2021-06-15T08:19:39Z</time>
      </trkpt>
      <trkpt lat="45.31772" lon="6.13283">
        <ele>1579.2</ele>
        <time>2021-06-15T08:19:46Z</time>
      </trkpt>
      <trkpt lat="45.31778" lon="6.13278">
        <ele>1582.36</ele>
        <time>2021-06-15T08:20:06Z</time>
      </trkpt>
      <trkpt lat="45.31773" lon="6.13271">
        <ele>1584.46</ele>
        <time>2021-06-15T08:20:26Z</time>
      </trkpt>
      <trkpt lat="45.31766" lon="6.13268">
        <ele>1586.3</ele>
        <time>2021-06-15T08:20:39Z</time>
      </trkpt>
      <trkpt lat="45.31756" lon="6.13255">
        <ele>1588.97</ele>
        <time>2021-06-15T08:20:58Z</time>
      </trkpt>
      <trkpt lat="45.31757" lon="6.1325">
        <ele>1588.98</ele>
        <time>2021-06-15T08:21:05Z</time>
      </trkpt>
      <trkpt lat="45.31761" lon="6.1325">
        <ele>1587.52</ele>
        <time>2021-06-15T08:21:19Z</time>
      </trkpt>
      <trkpt lat="45.31759" lon="6.13254">
        <ele>1589.17</ele>
        <time>2021-06-15T08:21:42Z</time>
      </trkpt>
      <trkpt lat="45.31756" lon="6.13254">
        <ele>1589.78</ele>
        <time>2021-06-15T08:21:47Z</time>
      </trkpt>
      <trkpt lat="45.31755" lon="6.13253">
        <ele>1590.08</ele>
        <time>2021-06-15T08:21:49Z</time>
      </trkpt>
      <trkpt lat="45.31736" lon="6.13247">
        <ele>1592.54</ele>
        <time>2021-06-15T08:22:11Z</time>
      </trkpt>
      <trkpt lat="45.31733" lon="6.13237">
        <ele>1594.63</ele>
        <time>2021-06-15T08:22:30Z</time>
      </trkpt>
      <trkpt lat="45.31726" lon="6.13228">
        <ele>1597.38</ele>
        <time>2021-06-15T08:22:53Z</time>
      </trkpt>
      <trkpt lat="45.31723" lon="6.13226">
        <ele>1598.18</ele>
        <time>2021-06-15T08:23:00Z</time>
      </trkpt>
      <trkpt lat="45.31727" lon="6.1322">
        <ele>1599.48</ele>
        <time>2021-06-15T08:23:17Z</time>
      </trkpt>
      <trkpt lat="45.31726" lon="6.13211">
        <ele>1601.22</ele>
        <time>2021-06-15T08:23:29Z</time>
      </trkpt>
      <trkpt lat="45.31728" lon="6.13212">
        <ele>1601.64</ele>
        <time>2021-06-15T08:24:02Z</time>
      </trkpt>
      <trkpt lat="45.31741" lon="6.13213">
        <ele>1601.65</ele>
        <time>2021-06-15T08:24:35Z</time>
      </trkpt>
      <trkpt lat="45.31744" lon="6.13214">
        <ele>1601.64</ele>
        <time>2021-06-15T08:24:45Z</time>
      </trkpt>
      <trkpt lat="45.3175" lon="6.13218">
        <ele>1601.58</ele>
        <time>2021-06-15T08:25:04Z</time>
      </trkpt>
      <trkpt lat="45.31743" lon="6.13221">
        <ele>1601.69</ele>
        <time>2021-06-15T08:25:37Z</time>
      </trkpt>
      <trkpt lat="45.31741" lon="6.13217">
        <ele>1601.62</ele>
        <time>2021-06-15T08:26:13Z</time>
      </trkpt>
      <trkpt lat="45.31729" lon="6.13215">
        <ele>1601.57</ele>
        <time>2021-06-15T08:26:30Z</time>
      </trkpt>
      <trkpt lat="45.31743" lon="6.13216">
        <ele>1601.56</ele>
        <time>2021-06-15T08:27:03Z</time>
      </trkpt>
      <trkpt lat="45.31747" lon="6.13217">
        <ele>1601.5</ele>
        <time>2021-06-15T08:27:53Z</time>
      </trkpt>
      <trkpt lat="45.3174" lon="6.13218">
        <ele>1601.61</ele>
        <time>2021-06-15T08:28:25Z</time>
      </trkpt>
      <trkpt lat="45.31743" lon="6.13213">
        <ele>1601.73</ele>
        <time>2021-06-15T08:28:49Z</time>
      </trkpt>
      <trkpt lat="45.31732" lon="6.13205">
        <ele>1602.56</ele>
        <time>2021-06-15T08:29:08Z</time>
      </trkpt>
      <trkpt lat="45.31725" lon="6.13205">
        <ele>1604.2</ele>
        <time>2021-06-15T08:29:21Z</time>
      </trkpt>
      <trkpt lat="45.3171" lon="6.132">
        <ele>1607.45</ele>
        <time>2021-06-15T08:29:45Z</time>
      </trkpt>
      <trkpt lat="45.31701" lon="6.13195">
        <ele>1609.83</ele>
        <time>2021-06-15T08:30:05Z</time>
      </trkpt>
      <trkpt lat="45.31696" lon="6.13201">
        <ele>1612.57</ele>
        <time>2021-06-15T08:30:28Z</time>
      </trkpt>
      <trkpt lat="45.31687" lon="6.13203">
        <ele>1614.62</ele>
        <time>2021-06-15T08:30:46Z</time>
      </trkpt>
      <trkpt lat="45.31676" lon="6.132">
        <ele>1613.81</ele>
        <time>2021-06-15T08:31:06Z</time>
      </trkpt>
      <trkpt lat="45.31663" lon="6.13202">
        <ele>1615.7</ele>
        <time>2021-06-15T08:31:27Z</time>
      </trkpt>
      <trkpt lat="45.31651" lon="6.132">
        <ele>1617.99</ele>
        <time>2021-06-15T08:31:45Z</time>
      </trkpt>
      <trkpt lat="45.31639" lon="6.13202">
        <ele>1620.48</ele>
        <time>2021-06-15T08:32:06Z</time>
      </trkpt>
      <trkpt lat="45.31627" lon="6.13199">
        <ele>1623.26</ele>
        <time>2021-06-15T08:32:27Z</time>
      </trkpt>
      <trkpt lat="45.31616" lon="6.13195">
        <ele>1625.52</ele>
        <time>2021-06-15T08:32:47Z</time>
      </trkpt>
      <trkpt lat="45.31608" lon="6.1319">
        <ele>1626.9</ele>
        <time>2021-06-15T08:33:03Z</time>
      </trkpt>
      <trkpt lat="45.316" lon="6.1318">
        <ele>1627.87</ele>
        <time>2021-06-15T08:33:19Z</time>
      </trkpt>
      <trkpt lat="45.31587" lon="6.13181">
        <ele>1630.53</ele>
        <time>2021-06-15T08:33:42Z</time>
      </trkpt>
      <trkpt lat="45.31575" lon="6.13179">
        <ele>1632.81</ele>
        <time>2021-06-15T08:34:03Z</time>
      </trkpt>
      <trkpt lat="45.31565" lon="6.13179">
        <ele>1634.41</ele>
        <time>2021-06-15T08:34:24Z</time>
      </trkpt>
      <trkpt lat="45.31563" lon="6.13173">
        <ele>1634.42</ele>
        <time>2021-06-15T08:34:47Z</time>
      </trkpt>
      <trkpt lat="45.31564" lon="6.13162">
        <ele>1634.39</ele>
        <time>2021-06-15T08:35:04Z</time>
      </trkpt>
      <trkpt lat="45.3157" lon="6.13146">
        <ele>1635.3</ele>
        <time>2021-06-15T08:35:26Z</time>
      </trkpt>
      <trkpt lat="45.31578" lon="6.13132">
        <ele>1637.49</ele>
        <time>2021-06-15T08:35:45Z</time>
      </trkpt>
      <trkpt lat="45.31585" lon="6.13119">
        <ele>1640.51</ele>
        <time>2021-06-15T08:36:10Z</time>
      </trkpt>
      <trkpt lat="45.31588" lon="6.13114">
        <ele>1642.5</ele>
        <time>2021-06-15T08:36:29Z</time>
      </trkpt>
      <trkpt lat="45.31588" lon="6.13116">
        <ele>1642.61</ele>
        <time>2021-06-15T08:36:58Z</time>
      </trkpt>
      <trkpt lat="45.31582" lon="6.1312">
        <ele>1642.86</ele>
        <time>2021-06-15T08:37:24Z</time>
      </trkpt>
      <trkpt lat="45.31568" lon="6.13119">
        <ele>1645.42</ele>
        <time>2021-06-15T08:37:43Z</time>
      </trkpt>
      <trkpt lat="45.31553" lon="6.13117">
        <ele>1646.94</ele>
        <time>2021-06-15T08:38:02Z</time>
      </trkpt>
      <trkpt lat="45.31542" lon="6.13122">
        <ele>1648.96</ele>
        <time>2021-06-15T08:38:21Z</time>
      </trkpt>
      <trkpt lat="45.31536" lon="6.13136">
        <ele>1650.66</ele>
        <time>2021-06-15T08:38:38Z</time>
      </trkpt>
      <trkpt lat="45.31536" lon="6.13138">
        <ele>1650.7</ele>
        <time>2021-06-15T08:38:40Z</time>
      </trkpt>
      <trkpt lat="45.31533" lon="6.13146">
        <ele>1651.94</ele>
        <time>2021-06-15T08:38:51Z</time>
      </trkpt>
      <trkpt lat="45.31525" lon="6.13157">
        <ele>1654.41</ele>
        <time>2021-06-15T08:39:10Z</time>
      </trkpt>
      <trkpt lat="45.31519" lon="6.13169">
        <ele>1655.82</ele>
        <time>2021-06-15T08:39:25Z</time>
      </trkpt>
      <trkpt lat="45.31512" lon="6.13176">
        <ele>1658.09</ele>
        <time>2021-06-15T08:39:40Z</time>
      </trkpt>
      <trkpt lat="45.31507" lon="6.13185">
        <ele>1660.17</ele>
        <time>2021-06-15T08:39:55Z</time>
      </trkpt>
      <trkpt lat="45.31498" lon="6.13187">
        <ele>1661.94</ele>
        <time>2021-06-15T08:40:12Z</time>
      </trkpt>
      <trkpt lat="45.31494" lon="6.13196">
        <ele>1663.92</ele>
        <time>2021-06-15T08:40:28Z</time>
      </trkpt>
      <trkpt lat="45.31494" lon="6.13211">
        <ele>1665.43</ele>
        <time>2021-06-15T08:40:47Z</time>
      </trkpt>
      <trkpt lat="45.31492" lon="6.13223">
        <ele>1667.32</ele>
        <time>2021-06-15T08:41:03Z</time>
      </trkpt>
      <trkpt lat="45.31489" lon="6.1324">
        <ele>1669.11</ele>
        <time>2021-06-15T08:41:21Z</time>
      </trkpt>
      <trkpt lat="45.31482" lon="6.13251">
        <ele>1670.87</ele>
        <time>2021-06-15T08:41:39Z</time>
      </trkpt>
      <trkpt lat="45.31477" lon="6.13261">
        <ele>1672.57</ele>
        <time>2021-06-15T08:41:55Z</time>
      </trkpt>
      <trkpt lat="45.31477" lon="6.13277">
        <ele>1674.9</ele>
        <time>2021-06-15T08:42:17Z</time>
      </trkpt>
      <trkpt lat="45.31473" lon="6.13285">
        <ele>1676.73</ele>
        <time>2021-06-15T08:42:31Z</time>
      </trkpt>
      <trkpt lat="45.31467" lon="6.1328">
        <ele>1679.1</ele>
        <time>2021-06-15T08:42:48Z</time>
      </trkpt>
      <trkpt lat="45.31463" lon="6.13287">
        <ele>1681.26</ele>
        <time>2021-06-15T08:43:07Z</time>
      </trkpt>
      <trkpt lat="45.3146" lon="6.13292">
        <ele>1683.2</ele>
        <time>2021-06-15T08:43:22Z</time>
      </trkpt>
      <trkpt lat="45.31456" lon="6.133">
        <ele>1686.21</ele>
        <time>2021-06-15T08:43:44Z</time>
      </trkpt>
      <trkpt lat="45.31452" lon="6.13307">
        <ele>1689.2</ele>
        <time>2021-06-15T08:44:06Z</time>
      </trkpt>
      <trkpt lat="45.31445" lon="6.13301">
        <ele>1691.86</ele>
        <time>2021-06-15T08:44:26Z</time>
      </trkpt>
      <trkpt lat="45.31444" lon="6.13305">
        <ele>1694</ele>
        <time>2021-06-15T08:44:42Z</time>
      </trkpt>
      <trkpt lat="45.31443" lon="6.13314">
        <ele>1696.37</ele>
        <time>2021-06-15T08:44:59Z</time>
      </trkpt>
      <trkpt lat="45.31439" lon="6.13316">
        <ele>1697.99</ele>
        <time>2021-06-15T08:45:13Z</time>
      </trkpt>
      <trkpt lat="45.31431" lon="6.13313">
        <ele>1700.83</ele>
        <time>2021-06-15T08:45:32Z</time>
      </trkpt>
      <trkpt lat="45.31421" lon="6.13315">
        <ele>1703.96</ele>
        <time>2021-06-15T08:45:57Z</time>
      </trkpt>
      <trkpt lat="45.31413" lon="6.13318">
        <ele>1706.99</ele>
        <time>2021-06-15T08:46:19Z</time>
      </trkpt>
      <trkpt lat="45.31406" lon="6.13318">
        <ele>1710.09</ele>
        <time>2021-06-15T08:46:40Z</time>
      </trkpt>
      <trkpt lat="45.31398" lon="6.13316">
        <ele>1712.52</ele>
        <time>2021-06-15T08:46:59Z</time>
      </trkpt>
      <trkpt lat="45.31393" lon="6.1332">
        <ele>1714.72</ele>
        <time>2021-06-15T08:47:15Z</time>
      </trkpt>
      <trkpt lat="45.31398" lon="6.13328">
        <ele>1716.81</ele>
        <time>2021-06-15T08:47:30Z</time>
      </trkpt>
      <trkpt lat="45.31398" lon="6.13335">
        <ele>1718.65</ele>
        <time>2021-06-15T08:47:47Z</time>
      </trkpt>
      <trkpt lat="45.31398" lon="6.13337">
        <ele>1719.7</ele>
        <time>2021-06-15T08:48:09Z</time>
      </trkpt>
      <trkpt lat="45.31392" lon="6.13337">
        <ele>1720.03</ele>
        <time>2021-06-15T08:48:44Z</time>
      </trkpt>
      <trkpt lat="45.31386" lon="6.13339">
        <ele>1722.41</ele>
        <time>2021-06-15T08:49:00Z</time>
      </trkpt>
      <trkpt lat="45.31381" lon="6.13339">
        <ele>1724.34</ele>
        <time>2021-06-15T08:49:14Z</time>
      </trkpt>
      <trkpt lat="45.31378" lon="6.13342">
        <ele>1725.52</ele>
        <time>2021-06-15T08:49:28Z</time>
      </trkpt>
      <trkpt lat="45.31375" lon="6.13341">
        <ele>1726.75</ele>
        <time>2021-06-15T08:50:17Z</time>
      </trkpt>
      <trkpt lat="45.31376" lon="6.13349">
        <ele>1728.39</ele>
        <time>2021-06-15T08:50:31Z</time>
      </trkpt>
      <trkpt lat="45.31384" lon="6.13359">
        <ele>1730.67</ele>
        <time>2021-06-15T08:50:48Z</time>
      </trkpt>
      <trkpt lat="45.3139" lon="6.13368">
        <ele>1733.36</ele>
        <time>2021-06-15T08:51:07Z</time>
      </trkpt>
      <trkpt lat="45.31395" lon="6.13383">
        <ele>1736.24</ele>
        <time>2021-06-15T08:51:29Z</time>
      </trkpt>
      <trkpt lat="45.31389" lon="6.13385">
        <ele>1738.66</ele>
        <time>2021-06-15T08:51:45Z</time>
      </trkpt>
      <trkpt lat="45.31377" lon="6.13383">
        <ele>1741.56</ele>
        <time>2021-06-15T08:52:05Z</time>
      </trkpt>
      <trkpt lat="45.31369" lon="6.13382">
        <ele>1744.57</ele>
        <time>2021-06-15T08:52:22Z</time>
      </trkpt>
      <trkpt lat="45.31363" lon="6.13383">
        <ele>1746.48</ele>
        <time>2021-06-15T08:52:37Z</time>
      </trkpt>
      <trkpt lat="45.31362" lon="6.13387">
        <ele>1749.02</ele>
        <time>2021-06-15T08:52:55Z</time>
      </trkpt>
      <trkpt lat="45.31361" lon="6.1339">
        <ele>1750.68</ele>
        <time>2021-06-15T08:53:24Z</time>
      </trkpt>
      <trkpt lat="45.31364" lon="6.13397">
        <ele>1751.5</ele>
        <time>2021-06-15T08:53:38Z</time>
      </trkpt>
      <trkpt lat="45.31368" lon="6.13407">
        <ele>1754.24</ele>
        <time>2021-06-15T08:53:57Z</time>
      </trkpt>
      <trkpt lat="45.3137" lon="6.13417">
        <ele>1757.31</ele>
        <time>2021-06-15T08:54:14Z</time>
      </trkpt>
      <trkpt lat="45.31369" lon="6.13422">
        <ele>1760.27</ele>
        <time>2021-06-15T08:54:32Z</time>
      </trkpt>
      <trkpt lat="45.31376" lon="6.13435">
        <ele>1762.5</ele>
        <time>2021-06-15T08:54:52Z</time>
      </trkpt>
      <trkpt lat="45.3138" lon="6.13446">
        <ele>1764.77</ele>
        <time>2021-06-15T08:55:10Z</time>
      </trkpt>
      <trkpt lat="45.31381" lon="6.13453">
        <ele>1767.8</ele>
        <time>2021-06-15T08:55:26Z</time>
      </trkpt>
      <trkpt lat="45.31388" lon="6.1346">
        <ele>1770.4</ele>
        <time>2021-06-15T08:55:44Z</time>
      </trkpt>
      <trkpt lat="45.31386" lon="6.13466">
        <ele>1772.48</ele>
        <time>2021-06-15T08:55:57Z</time>
      </trkpt>
      <trkpt lat="45.31391" lon="6.13471">
        <ele>1775.25</ele>
        <time>2021-06-15T08:56:15Z</time>
      </trkpt>
      <trkpt lat="45.31396" lon="6.13478">
        <ele>1777.38</ele>
        <time>2021-06-15T08:56:30Z</time>
      </trkpt>
      <trkpt lat="45.314" lon="6.13483">
        <ele>1779.34</ele>
        <time>2021-06-15T08:56:45Z</time>
      </trkpt>
      <trkpt lat="45.31406" lon="6.13488">
        <ele>1781.48</ele>
        <time>2021-06-15T08:57:01Z</time>
      </trkpt>
      <trkpt lat="45.31405" lon="6.13495">
        <ele>1783.47</ele>
        <time>2021-06-15T08:57:18Z</time>
      </trkpt>
      <trkpt lat="45.31404" lon="6.13502">
        <ele>1786.44</ele>
        <time>2021-06-15T08:57:35Z</time>
      </trkpt>
      <trkpt lat="45.31408" lon="6.13507">
        <ele>1788.52</ele>
        <time>2021-06-15T08:57:51Z</time>
      </trkpt>
      <trkpt lat="45.31409" lon="6.13512">
        <ele>1790.27</ele>
        <time>2021-06-15T08:58:04Z</time>
      </trkpt>
      <trkpt lat="45.31412" lon="6.13517">
        <ele>1792.29</ele>
        <time>2021-06-15T08:58:19Z</time>
      </trkpt>
      <trkpt lat="45.31422" lon="6.13527">
        <ele>1794.15</ele>
        <time>2021-06-15T08:58:38Z</time>
      </trkpt>
      <trkpt lat="45.31423" lon="6.13538">
        <ele>1795.89</ele>
        <time>2021-06-15T08:58:53Z</time>
      </trkpt>
      <trkpt lat="45.31421" lon="6.13543">
        <ele>1797.94</ele>
        <time>2021-06-15T08:59:07Z</time>
      </trkpt>
      <trkpt lat="45.31416" lon="6.13555">
        <ele>1800.47</ele>
        <time>2021-06-15T08:59:25Z</time>
      </trkpt>
      <trkpt lat="45.31413" lon="6.13562">
        <ele>1801.26</ele>
        <time>2021-06-15T08:59:42Z</time>
      </trkpt>
      <trkpt lat="45.31415" lon="6.13558">
        <ele>1801.15</ele>
        <time>2021-06-15T09:00:03Z</time>
      </trkpt>
      <trkpt lat="45.31421" lon="6.13549">
        <ele>1800.76</ele>
        <time>2021-06-15T09:00:21Z</time>
      </trkpt>
      <trkpt lat="45.31422" lon="6.13546">
        <ele>1800.87</ele>
        <time>2021-06-15T09:00:46Z</time>
      </trkpt>
      <trkpt lat="45.31422" lon="6.1355">
        <ele>1800.94</ele>
        <time>2021-06-15T09:01:35Z</time>
      </trkpt>
      <trkpt lat="45.31422" lon="6.13549">
        <ele>1800.67</ele>
        <time>2021-06-15T09:01:58Z</time>
      </trkpt>
      <trkpt lat="45.31423" lon="6.13548">
        <ele>1800.88</ele>
        <time>2021-06-15T09:02:39Z</time>
      </trkpt>
      <trkpt lat="45.31422" lon="6.13548">
        <ele>1800.93</ele>
        <time>2021-06-15T09:03:26Z</time>
      </trkpt>
      <trkpt lat="45.31417" lon="6.13542">
        <ele>1800.94</ele>
        <time>2021-06-15T09:03:59Z</time>
      </trkpt>
      <trkpt lat="45.31417" lon="6.13544">
        <ele>1800.54</ele>
        <time>2021-06-15T09:04:17Z</time>
      </trkpt>
      <trkpt lat="45.31416" lon="6.13545">
        <ele>1800.33</ele>
        <time>2021-06-15T09:06:37Z</time>
      </trkpt>
      <trkpt lat="45.31415" lon="6.13545">
        <ele>1800.59</ele>
        <time>2021-06-15T09:10:27Z</time>
      </trkpt>
      <trkpt lat="45.31415" lon="6.13546">
        <ele>1800.55</ele>
        <time>2021-06-15T09:10:36Z</time>
      </trkpt>
      <trkpt lat="45.31415" lon="6.13547">
        <ele>1799.92</ele>
        <time>2021-06-15T09:15:05Z</time>
      </trkpt>
      <trkpt lat="45.31416" lon="6.13546">
        <ele>1799.81</ele>
        <time>2021-06-15T09:18:01Z</time>
      </trkpt>
      <trkpt lat="45.31415" lon="6.13545">
        <ele>1800.04</ele>
        <time>2021-06-15T09:18:18Z</time>
      </trkpt>
      <trkpt lat="45.31418" lon="6.13548">
        <ele>1800.05</ele>
        <time>2021-06-15T09:18:29Z</time>
      </trkpt>
      <trkpt lat="45.3142" lon="6.1355">
        <ele>1800.22</ele>
        <time>2021-06-15T09:18:38Z</time>
      </trkpt>
      <trkpt lat="45.31417" lon="6.13544">
        <ele>1800.07</ele>
        <time>2021-06-15T09:18:52Z</time>
      </trkpt>
      <trkpt lat="45.31422" lon="6.13539">
        <ele>1798.24</ele>
        <time>2021-06-15T09:19:11Z</time>
      </trkpt>
      <trkpt lat="45.31423" lon="6.13527">
        <ele>1796.44</ele>
        <time>2021-06-15T09:19:24Z</time>
      </trkpt>
      <trkpt lat="45.31415" lon="6.13518">
        <ele>1793.76</ele>
        <time>2021-06-15T09:19:40Z</time>
      </trkpt>
      <trkpt lat="45.31409" lon="6.13512">
        <ele>1791.81</ele>
        <time>2021-06-15T09:20:01Z</time>
      </trkpt>
      <trkpt lat="45.31407" lon="6.13505">
        <ele>1789.68</ele>
        <time>2021-06-15T09:20:16Z</time>
      </trkpt>
      <trkpt lat="45.31403" lon="6.13498">
        <ele>1787.51</ele>
        <time>2021-06-15T09:20:31Z</time>
      </trkpt>
      <trkpt lat="45.31408" lon="6.13491">
        <ele>1784.41</ele>
        <time>2021-06-15T09:20:46Z</time>
      </trkpt>
      <trkpt lat="45.31403" lon="6.13485">
        <ele>1781.38</ele>
        <time>2021-06-15T09:20:59Z</time>
      </trkpt>
      <trkpt lat="45.31397" lon="6.13478">
        <ele>1778.64</ele>
        <time>2021-06-15T09:21:16Z</time>
      </trkpt>
      <trkpt lat="45.31389" lon="6.1347">
        <ele>1775.5</ele>
        <time>2021-06-15T09:21:34Z</time>
      </trkpt>
      <trkpt lat="45.31389" lon="6.13462">
        <ele>1773.06</ele>
        <time>2021-06-15T09:21:47Z</time>
      </trkpt>
      <trkpt lat="45.31385" lon="6.13454">
        <ele>1769.93</ele>
        <time>2021-06-15T09:22:03Z</time>
      </trkpt>
      <trkpt lat="45.3138" lon="6.13441">
        <ele>1767.23</ele>
        <time>2021-06-15T09:22:20Z</time>
      </trkpt>
      <trkpt lat="45.31378" lon="6.13435">
        <ele>1765.26</ele>
        <time>2021-06-15T09:22:26Z</time>
      </trkpt>
      <trkpt lat="45.31375" lon="6.13432">
        <ele>1763.94</ele>
        <time>2021-06-15T09:22:30Z</time>
      </trkpt>
      <trkpt lat="45.3137" lon="6.13421">
        <ele>1760.86</ele>
        <time>2021-06-15T09:22:45Z</time>
      </trkpt>
      <trkpt lat="45.31364" lon="6.13408">
        <ele>1757.82</ele>
        <time>2021-06-15T09:23:00Z</time>
      </trkpt>
      <trkpt lat="45.31357" lon="6.13401">
        <ele>1755.25</ele>
        <time>2021-06-15T09:23:17Z</time>
      </trkpt>
      <trkpt lat="45.31355" lon="6.13396">
        <ele>1752.7</ele>
        <time>2021-06-15T09:23:32Z</time>
      </trkpt>
      <trkpt lat="45.3136" lon="6.13389">
        <ele>1749.97</ele>
        <time>2021-06-15T09:23:46Z</time>
      </trkpt>
      <trkpt lat="45.31365" lon="6.13385">
        <ele>1747.68</ele>
        <time>2021-06-15T09:23:57Z</time>
      </trkpt>
      <trkpt lat="45.31375" lon="6.13385">
        <ele>1744.47</ele>
        <time>2021-06-15T09:24:11Z</time>
      </trkpt>
      <trkpt lat="45.31381" lon="6.13385">
        <ele>1742.7</ele>
        <time>2021-06-15T09:24:19Z</time>
      </trkpt>
      <trkpt lat="45.31384" lon="6.13385">
        <ele>1741.84</ele>
        <time>2021-06-15T09:24:23Z</time>
      </trkpt>
      <trkpt lat="45.31393" lon="6.13385">
        <ele>1738.69</ele>
        <time>2021-06-15T09:24:35Z</time>
      </trkpt>
      <trkpt lat="45.31393" lon="6.13385">
        <ele>1738.42</ele>
        <time>2021-06-15T09:24:36Z</time>
      </trkpt>
      <trkpt lat="45.3139" lon="6.13371">
        <ele>1735.1</ele>
        <time>2021-06-15T09:24:50Z</time>
      </trkpt>
      <trkpt lat="45.31383" lon="6.1336">
        <ele>1732.04</ele>
        <time>2021-06-15T09:25:04Z</time>
      </trkpt>
      <trkpt lat="45.31381" lon="6.13357">
        <ele>1731.53</ele>
        <time>2021-06-15T09:25:07Z</time>
      </trkpt>
      <trkpt lat="45.31379" lon="6.13353">
        <ele>1730.5</ele>
        <time>2021-06-15T09:25:11Z</time>
      </trkpt>
      <trkpt lat="45.31377" lon="6.13341">
        <ele>1727.24</ele>
        <time>2021-06-15T09:25:26Z</time>
      </trkpt>
      <trkpt lat="45.31385" lon="6.1334">
        <ele>1724.2</ele>
        <time>2021-06-15T09:25:39Z</time>
      </trkpt>
      <trkpt lat="45.31391" lon="6.1334">
        <ele>1721.05</ele>
        <time>2021-06-15T09:25:51Z</time>
      </trkpt>
      <trkpt lat="45.31396" lon="6.13336">
        <ele>1718.09</ele>
        <time>2021-06-15T09:26:04Z</time>
      </trkpt>
      <trkpt lat="45.31389" lon="6.13323">
        <ele>1715.01</ele>
        <time>2021-06-15T09:26:21Z</time>
      </trkpt>
      <trkpt lat="45.31396" lon="6.13318">
        <ele>1712.66</ele>
        <time>2021-06-15T09:26:36Z</time>
      </trkpt>
      <trkpt lat="45.31404" lon="6.13321">
        <ele>1710.89</ele>
        <time>2021-06-15T09:26:45Z</time>
      </trkpt>
      <trkpt lat="45.31412" lon="6.13322">
        <ele>1708.43</ele>
        <time>2021-06-15T09:26:59Z</time>
      </trkpt>
      <trkpt lat="45.31419" lon="6.1332">
        <ele>1705.61</ele>
        <time>2021-06-15T09:27:11Z</time>
      </trkpt>
      <trkpt lat="45.31427" lon="6.13318">
        <ele>1702.99</ele>
        <time>2021-06-15T09:27:23Z</time>
      </trkpt>
      <trkpt lat="45.31434" lon="6.1332">
        <ele>1699.82</ele>
        <time>2021-06-15T09:27:33Z</time>
      </trkpt>
      <trkpt lat="45.31436" lon="6.1332">
        <ele>1697.28</ele>
        <time>2021-06-15T09:27:49Z</time>
      </trkpt>
      <trkpt lat="45.3144" lon="6.13313">
        <ele>1695.87</ele>
        <time>2021-06-15T09:28:05Z</time>
      </trkpt>
      <trkpt lat="45.31442" lon="6.13303">
        <ele>1693.11</ele>
        <time>2021-06-15T09:28:18Z</time>
      </trkpt>
      <trkpt lat="45.31447" lon="6.13305">
        <ele>1690.69</ele>
        <time>2021-06-15T09:28:32Z</time>
      </trkpt>
      <trkpt lat="45.3145" lon="6.1331">
        <ele>1689.15</ele>
        <time>2021-06-15T09:28:44Z</time>
      </trkpt>
      <trkpt lat="45.31451" lon="6.13305">
        <ele>1687.1</ele>
        <time>2021-06-15T09:29:08Z</time>
      </trkpt>
      <trkpt lat="45.3145" lon="6.13304">
        <ele>1685.59</ele>
        <time>2021-06-15T09:29:42Z</time>
      </trkpt>
      <trkpt lat="45.3145" lon="6.133">
        <ele>1684.9</ele>
        <time>2021-06-15T09:30:06Z</time>
      </trkpt>
      <trkpt lat="45.31454" lon="6.13291">
        <ele>1683.4</ele>
        <time>2021-06-15T09:30:23Z</time>
      </trkpt>
      <trkpt lat="45.31458" lon="6.13291">
        <ele>1681.14</ele>
        <time>2021-06-15T09:30:36Z</time>
      </trkpt>
      <trkpt lat="45.31463" lon="6.13282">
        <ele>1678.88</ele>
        <time>2021-06-15T09:30:52Z</time>
      </trkpt>
      <trkpt lat="45.31469" lon="6.13285">
        <ele>1676.78</ele>
        <time>2021-06-15T09:31:07Z</time>
      </trkpt>
      <trkpt lat="45.31474" lon="6.13272">
        <ele>1673.85</ele>
        <time>2021-06-15T09:31:26Z</time>
      </trkpt>
      <trkpt lat="45.31475" lon="6.13268">
        <ele>1673.15</ele>
        <time>2021-06-15T09:31:30Z</time>
      </trkpt>
      <trkpt lat="45.31476" lon="6.13259">
        <ele>1671.88</ele>
        <time>2021-06-15T09:31:38Z</time>
      </trkpt>
      <trkpt lat="45.31478" lon="6.13251">
        <ele>1670.72</ele>
        <time>2021-06-15T09:31:44Z</time>
      </trkpt>
      <trkpt lat="45.31482" lon="6.13248">
        <ele>1669.49</ele>
        <time>2021-06-15T09:31:50Z</time>
      </trkpt>
      <trkpt lat="45.31487" lon="6.13235">
        <ele>1667.78</ele>
        <time>2021-06-15T09:32:04Z</time>
      </trkpt>
      <trkpt lat="45.31489" lon="6.13228">
        <ele>1667.2</ele>
        <time>2021-06-15T09:32:10Z</time>
      </trkpt>
      <trkpt lat="45.31491" lon="6.13218">
        <ele>1666.1</ele>
        <time>2021-06-15T09:32:19Z</time>
      </trkpt>
      <trkpt lat="45.31493" lon="6.1321">
        <ele>1664.9</ele>
        <time>2021-06-15T09:32:27Z</time>
      </trkpt>
      <trkpt lat="45.31493" lon="6.13192">
        <ele>1662.13</ele>
        <time>2021-06-15T09:32:43Z</time>
      </trkpt>
      <trkpt lat="45.31502" lon="6.13187">
        <ele>1660.09</ele>
        <time>2021-06-15T09:32:57Z</time>
      </trkpt>
      <trkpt lat="45.31506" lon="6.1318">
        <ele>1658.78</ele>
        <time>2021-06-15T09:33:05Z</time>
      </trkpt>
      <trkpt lat="45.31512" lon="6.13174">
        <ele>1657.56</ele>
        <time>2021-06-15T09:33:13Z</time>
      </trkpt>
      <trkpt lat="45.31515" lon="6.13171">
        <ele>1656.72</ele>
        <time>2021-06-15T09:33:17Z</time>
      </trkpt>
      <trkpt lat="45.3152" lon="6.13155">
        <ele>1654</ele>
        <time>2021-06-15T09:33:33Z</time>
      </trkpt>
      <trkpt lat="45.31522" lon="6.13154">
        <ele>1653.24</ele>
        <time>2021-06-15T09:33:38Z</time>
      </trkpt>
      <trkpt lat="45.31524" lon="6.13152">
        <ele>1652.87</ele>
        <time>2021-06-15T09:33:40Z</time>
      </trkpt>
      <trkpt lat="45.31533" lon="6.1314">
        <ele>1650.82</ele>
        <time>2021-06-15T09:33:56Z</time>
      </trkpt>
      <trkpt lat="45.31537" lon="6.13128">
        <ele>1649.01</ele>
        <time>2021-06-15T09:34:09Z</time>
      </trkpt>
      <trkpt lat="45.3154" lon="6.13125">
        <ele>1648.28</ele>
        <time>2021-06-15T09:34:14Z</time>
      </trkpt>
      <trkpt lat="45.31543" lon="6.13123">
        <ele>1647.94</ele>
        <time>2021-06-15T09:34:18Z</time>
      </trkpt>
      <trkpt lat="45.31551" lon="6.13123">
        <ele>1646.89</ele>
        <time>2021-06-15T09:34:27Z</time>
      </trkpt>
      <trkpt lat="45.31567" lon="6.13124">
        <ele>1644.35</ele>
        <time>2021-06-15T09:34:45Z</time>
      </trkpt>
      <trkpt lat="45.3158" lon="6.1312">
        <ele>1642.36</ele>
        <time>2021-06-15T09:35:00Z</time>
      </trkpt>
      <trkpt lat="45.31582" lon="6.13121">
        <ele>1641.16</ele>
        <time>2021-06-15T09:35:07Z</time>
      </trkpt>
      <trkpt lat="45.31585" lon="6.1312">
        <ele>1640.7</ele>
        <time>2021-06-15T09:35:10Z</time>
      </trkpt>
      <trkpt lat="45.3159" lon="6.13116">
        <ele>1640.32</ele>
        <time>2021-06-15T09:35:15Z</time>
      </trkpt>
      <trkpt lat="45.31597" lon="6.13103">
        <ele>1639.09</ele>
        <time>2021-06-15T09:35:30Z</time>
      </trkpt>
      <trkpt lat="45.31598" lon="6.13093">
        <ele>1638.26</ele>
        <time>2021-06-15T09:35:49Z</time>
      </trkpt>
      <trkpt lat="45.31595" lon="6.13066">
        <ele>1638.36</ele>
        <time>2021-06-15T09:36:08Z</time>
      </trkpt>
      <trkpt lat="45.31594" lon="6.13057">
        <ele>1638.04</ele>
        <time>2021-06-15T09:36:15Z</time>
      </trkpt>
      <trkpt lat="45.3159" lon="6.13034">
        <ele>1637.04</ele>
        <time>2021-06-15T09:36:33Z</time>
      </trkpt>
      <trkpt lat="45.31589" lon="6.13029">
        <ele>1636.58</ele>
        <time>2021-06-15T09:36:43Z</time>
      </trkpt>
      <trkpt lat="45.31589" lon="6.13022">
        <ele>1636.52</ele>
        <time>2021-06-15T09:36:47Z</time>
      </trkpt>
      <trkpt lat="45.31587" lon="6.13008">
        <ele>1634.62</ele>
        <time>2021-06-15T09:37:05Z</time>
      </trkpt>
      <trkpt lat="45.31586" lon="6.12997">
        <ele>1633.5</ele>
        <time>2021-06-15T09:37:23Z</time>
      </trkpt>
      <trkpt lat="45.3158" lon="6.12996">
        <ele>1633.21</ele>
        <time>2021-06-15T09:37:46Z</time>
      </trkpt>
      <trkpt lat="45.31577" lon="6.12995">
        <ele>1633.3</ele>
        <time>2021-06-15T09:37:49Z</time>
      </trkpt>
      <trkpt lat="45.31579" lon="6.12992">
        <ele>1633.55</ele>
        <time>2021-06-15T09:38:01Z</time>
      </trkpt>
      <trkpt lat="45.31584" lon="6.12985">
        <ele>1633.47</ele>
        <time>2021-06-15T09:38:16Z</time>
      </trkpt>
      <trkpt lat="45.31577" lon="6.12973">
        <ele>1635.25</ele>
        <time>2021-06-15T09:38:34Z</time>
      </trkpt>
      <trkpt lat="45.31569" lon="6.12956">
        <ele>1636.55</ele>
        <time>2021-06-15T09:38:54Z</time>
      </trkpt>
      <trkpt lat="45.31559" lon="6.1294">
        <ele>1636.93</ele>
        <time>2021-06-15T09:39:12Z</time>
      </trkpt>
      <trkpt lat="45.31558" lon="6.12927">
        <ele>1638.75</ele>
        <time>2021-06-15T09:39:30Z</time>
      </trkpt>
      <trkpt lat="45.31555" lon="6.1292">
        <ele>1640.12</ele>
        <time>2021-06-15T09:39:47Z</time>
      </trkpt>
      <trkpt lat="45.31549" lon="6.12908">
        <ele>1640.89</ele>
        <time>2021-06-15T09:40:05Z</time>
      </trkpt>
      <trkpt lat="45.31545" lon="6.12903">
        <ele>1644.03</ele>
        <time>2021-06-15T09:40:27Z</time>
      </trkpt>
      <trkpt lat="45.3154" lon="6.12898">
        <ele>1646.2</ele>
        <time>2021-06-15T09:40:44Z</time>
      </trkpt>
      <trkpt lat="45.31535" lon="6.12892">
        <ele>1649.28</ele>
        <time>2021-06-15T09:41:03Z</time>
      </trkpt>
      <trkpt lat="45.31534" lon="6.12885">
        <ele>1651.19</ele>
        <time>2021-06-15T09:41:24Z</time>
      </trkpt>
      <trkpt lat="45.31535" lon="6.12871">
        <ele>1651.4</ele>
        <time>2021-06-15T09:41:40Z</time>
      </trkpt>
      <trkpt lat="45.31539" lon="6.12861">
        <ele>1652.39</ele>
        <time>2021-06-15T09:41:57Z</time>
      </trkpt>
      <trkpt lat="45.31545" lon="6.12843">
        <ele>1652.98</ele>
        <time>2021-06-15T09:42:17Z</time>
      </trkpt>
      <trkpt lat="45.31545" lon="6.12824">
        <ele>1653.03</ele>
        <time>2021-06-15T09:42:37Z</time>
      </trkpt>
      <trkpt lat="45.31542" lon="6.1281">
        <ele>1655.89</ele>
        <time>2021-06-15T09:42:59Z</time>
      </trkpt>
      <trkpt lat="45.31546" lon="6.12798">
        <ele>1656.51</ele>
        <time>2021-06-15T09:43:19Z</time>
      </trkpt>
      <trkpt lat="45.3155" lon="6.1279">
        <ele>1656.54</ele>
        <time>2021-06-15T09:43:36Z</time>
      </trkpt>
      <trkpt lat="45.31551" lon="6.12784">
        <ele>1658.02</ele>
        <time>2021-06-15T09:43:49Z</time>
      </trkpt>
      <trkpt lat="45.31554" lon="6.12779">
        <ele>1659.79</ele>
        <time>2021-06-15T09:44:01Z</time>
      </trkpt>
      <trkpt lat="45.31557" lon="6.12771">
        <ele>1660.76</ele>
        <time>2021-06-15T09:44:18Z</time>
      </trkpt>
      <trkpt lat="45.31559" lon="6.12759">
        <ele>1663.78</ele>
        <time>2021-06-15T09:44:42Z</time>
      </trkpt>
      <trkpt lat="45.31561" lon="6.12748">
        <ele>1666.05</ele>
        <time>2021-06-15T09:45:03Z</time>
      </trkpt>
      <trkpt lat="45.31562" lon="6.12736">
        <ele>1669.2</ele>
        <time>2021-06-15T09:45:22Z</time>
      </trkpt>
      <trkpt lat="45.3156" lon="6.12731">
        <ele>1671.36</ele>
        <time>2021-06-15T09:45:40Z</time>
      </trkpt>
      <trkpt lat="45.31561" lon="6.12719">
        <ele>1674.11</ele>
        <time>2021-06-15T09:46:03Z</time>
      </trkpt>
      <trkpt lat="45.31563" lon="6.1271">
        <ele>1676.16</ele>
        <time>2021-06-15T09:46:20Z</time>
      </trkpt>
      <trkpt lat="45.31566" lon="6.12696">
        <ele>1678.8</ele>
        <time>2021-06-15T09:46:44Z</time>
      </trkpt>
      <trkpt lat="45.31565" lon="6.12684">
        <ele>1681.98</ele>
        <time>2021-06-15T09:47:08Z</time>
      </trkpt>
      <trkpt lat="45.31564" lon="6.1267">
        <ele>1684.73</ele>
        <time>2021-06-15T09:47:28Z</time>
      </trkpt>
      <trkpt lat="45.31558" lon="6.12659">
        <ele>1687.64</ele>
        <time>2021-06-15T09:47:49Z</time>
      </trkpt>
      <trkpt lat="45.31565" lon="6.12648">
        <ele>1690.29</ele>
        <time>2021-06-15T09:48:07Z</time>
      </trkpt>
      <trkpt lat="45.31571" lon="6.12638">
        <ele>1691.75</ele>
        <time>2021-06-15T09:48:29Z</time>
      </trkpt>
      <trkpt lat="45.31568" lon="6.12635">
        <ele>1694.3</ele>
        <time>2021-06-15T09:48:51Z</time>
      </trkpt>
      <trkpt lat="45.31569" lon="6.12628">
        <ele>1697.29</ele>
        <time>2021-06-15T09:49:11Z</time>
      </trkpt>
      <trkpt lat="45.31571" lon="6.12619">
        <ele>1699.56</ele>
        <time>2021-06-15T09:49:28Z</time>
      </trkpt>
      <trkpt lat="45.31571" lon="6.12609">
        <ele>1702.03</ele>
        <time>2021-06-15T09:49:46Z</time>
      </trkpt>
      <trkpt lat="45.31572" lon="6.126">
        <ele>1704.63</ele>
        <time>2021-06-15T09:50:04Z</time>
      </trkpt>
      <trkpt lat="45.31572" lon="6.12593">
        <ele>1706.95</ele>
        <time>2021-06-15T09:50:19Z</time>
      </trkpt>
      <trkpt lat="45.31571" lon="6.12588">
        <ele>1709.07</ele>
        <time>2021-06-15T09:50:35Z</time>
      </trkpt>
      <trkpt lat="45.31572" lon="6.1258">
        <ele>1710.81</ele>
        <time>2021-06-15T09:50:48Z</time>
      </trkpt>
      <trkpt lat="45.3157" lon="6.12575">
        <ele>1712.47</ele>
        <time>2021-06-15T09:51:03Z</time>
      </trkpt>
      <trkpt lat="45.31568" lon="6.12572">
        <ele>1714.99</ele>
        <time>2021-06-15T09:51:22Z</time>
      </trkpt>
      <trkpt lat="45.3157" lon="6.12567">
        <ele>1715.01</ele>
        <time>2021-06-15T09:51:56Z</time>
      </trkpt>
      <trkpt lat="45.31567" lon="6.12563">
        <ele>1716.75</ele>
        <time>2021-06-15T09:52:10Z</time>
      </trkpt>
      <trkpt lat="45.31564" lon="6.12556">
        <ele>1719.56</ele>
        <time>2021-06-15T09:52:25Z</time>
      </trkpt>
      <trkpt lat="45.3156" lon="6.12553">
        <ele>1722.52</ele>
        <time>2021-06-15T09:52:46Z</time>
      </trkpt>
      <trkpt lat="45.31559" lon="6.12551">
        <ele>1723.89</ele>
        <time>2021-06-15T09:53:00Z</time>
      </trkpt>
      <trkpt lat="45.31556" lon="6.12547">
        <ele>1725.87</ele>
        <time>2021-06-15T09:53:14Z</time>
      </trkpt>
      <trkpt lat="45.31555" lon="6.12541">
        <ele>1727.62</ele>
        <time>2021-06-15T09:53:28Z</time>
      </trkpt>
      <trkpt lat="45.31555" lon="6.12545">
        <ele>1728.01</ele>
        <time>2021-06-15T09:53:43Z</time>
      </trkpt>
      <trkpt lat="45.31555" lon="6.1254">
        <ele>1728.07</ele>
        <time>2021-06-15T09:53:57Z</time>
      </trkpt>
      <trkpt lat="45.31556" lon="6.12538">
        <ele>1728.15</ele>
        <time>2021-06-15T09:54:35Z</time>
      </trkpt>
      <trkpt lat="45.31556" lon="6.12538">
        <ele>1728.29</ele>
        <time>2021-06-15T09:55:09Z</time>
      </trkpt>
      <trkpt lat="45.31557" lon="6.12539">
        <ele>1728.22</ele>
        <time>2021-06-15T09:56:02Z</time>
      </trkpt>
      <trkpt lat="45.31558" lon="6.12535">
        <ele>1728.28</ele>
        <time>2021-06-15T09:56:29Z</time>
      </trkpt>
      <trkpt lat="45.31556" lon="6.1253">
        <ele>1728.69</ele>
        <time>2021-06-15T09:56:50Z</time>
      </trkpt>
      <trkpt lat="45.3156" lon="6.12525">
        <ele>1728.54</ele>
        <time>2021-06-15T09:57:23Z</time>
      </trkpt>
      <trkpt lat="45.31559" lon="6.12516">
        <ele>1728.93</ele>
        <time>2021-06-15T09:57:39Z</time>
      </trkpt>
      <trkpt lat="45.31559" lon="6.12508">
        <ele>1732.12</ele>
        <time>2021-06-15T09:57:53Z</time>
      </trkpt>
      <trkpt lat="45.31557" lon="6.12497">
        <ele>1734.08</ele>
        <time>2021-06-15T09:58:08Z</time>
      </trkpt>
      <trkpt lat="45.31556" lon="6.12491">
        <ele>1736.54</ele>
        <time>2021-06-15T09:58:25Z</time>
      </trkpt>
      <trkpt lat="45.31553" lon="6.12485">
        <ele>1738.75</ele>
        <time>2021-06-15T09:58:51Z</time>
      </trkpt>
      <trkpt lat="45.3155" lon="6.12478">
        <ele>1740.87</ele>
        <time>2021-06-15T09:59:11Z</time>
      </trkpt>
      <trkpt lat="45.3155" lon="6.12468">
        <ele>1743.54</ele>
        <time>2021-06-15T09:59:28Z</time>
      </trkpt>
      <trkpt lat="45.31546" lon="6.12456">
        <ele>1745.88</ele>
        <time>2021-06-15T09:59:46Z</time>
      </trkpt>
      <trkpt lat="45.31546" lon="6.12455">
        <ele>1746.11</ele>
        <time>2021-06-15T09:59:47Z</time>
      </trkpt>
      <trkpt lat="45.31545" lon="6.12436">
        <ele>1747.48</ele>
        <time>2021-06-15T10:00:04Z</time>
      </trkpt>
      <trkpt lat="45.31544" lon="6.12432">
        <ele>1747.5</ele>
        <time>2021-06-15T10:00:07Z</time>
      </trkpt>
      <trkpt lat="45.31541" lon="6.12422">
        <ele>1746.93</ele>
        <time>2021-06-15T10:00:22Z</time>
      </trkpt>
      <trkpt lat="45.31536" lon="6.12421">
        <ele>1749.1</ele>
        <time>2021-06-15T10:00:38Z</time>
      </trkpt>
      <trkpt lat="45.31534" lon="6.12416">
        <ele>1751.74</ele>
        <time>2021-06-15T10:00:54Z</time>
      </trkpt>
      <trkpt lat="45.31532" lon="6.1242">
        <ele>1753.85</ele>
        <time>2021-06-15T10:01:09Z</time>
      </trkpt>
      <trkpt lat="45.31529" lon="6.12417">
        <ele>1756.15</ele>
        <time>2021-06-15T10:01:26Z</time>
      </trkpt>
      <trkpt lat="45.31526" lon="6.12416">
        <ele>1758.97</ele>
        <time>2021-06-15T10:01:44Z</time>
      </trkpt>
      <trkpt lat="45.31524" lon="6.12409">
        <ele>1761.5</ele>
        <time>2021-06-15T10:02:01Z</time>
      </trkpt>
      <trkpt lat="45.3152" lon="6.12403">
        <ele>1761.9</ele>
        <time>2021-06-15T10:02:15Z</time>
      </trkpt>
      <trkpt lat="45.31517" lon="6.12394">
        <ele>1761.26</ele>
        <time>2021-06-15T10:02:28Z</time>
      </trkpt>
      <trkpt lat="45.31515" lon="6.12384">
        <ele>1762.2</ele>
        <time>2021-06-15T10:02:47Z</time>
      </trkpt>
      <trkpt lat="45.31515" lon="6.12379">
        <ele>1763.3</ele>
        <time>2021-06-15T10:03:00Z</time>
      </trkpt>
      <trkpt lat="45.31519" lon="6.12363">
        <ele>1763.16</ele>
        <time>2021-06-15T10:03:17Z</time>
      </trkpt>
      <trkpt lat="45.31519" lon="6.12357">
        <ele>1763.4</ele>
        <time>2021-06-15T10:03:33Z</time>
      </trkpt>
      <trkpt lat="45.3152" lon="6.12352">
        <ele>1763.88</ele>
        <time>2021-06-15T10:03:42Z</time>
      </trkpt>
      <trkpt lat="45.31519" lon="6.12336">
        <ele>1763</ele>
        <time>2021-06-15T10:03:55Z</time>
      </trkpt>
      <trkpt lat="45.31518" lon="6.12331">
        <ele>1763.79</ele>
        <time>2021-06-15T10:04:07Z</time>
      </trkpt>
      <trkpt lat="45.31518" lon="6.12328">
        <ele>1764.64</ele>
        <time>2021-06-15T10:04:28Z</time>
      </trkpt>
      <trkpt lat="45.31524" lon="6.12317">
        <ele>1767.15</ele>
        <time>2021-06-15T10:04:49Z</time>
      </trkpt>
      <trkpt lat="45.31535" lon="6.12306">
        <ele>1768.26</ele>
        <time>2021-06-15T10:05:16Z</time>
      </trkpt>
      <trkpt lat="45.31538" lon="6.12301">
        <ele>1768.72</ele>
        <time>2021-06-15T10:05:36Z</time>
      </trkpt>
      <trkpt lat="45.31542" lon="6.12289">
        <ele>1768.63</ele>
        <time>2021-06-15T10:05:54Z</time>
      </trkpt>
      <trkpt lat="45.31543" lon="6.1228">
        <ele>1768.82</ele>
        <time>2021-06-15T10:06:05Z</time>
      </trkpt>
      <trkpt lat="45.31545" lon="6.12267">
        <ele>1770.38</ele>
        <time>2021-06-15T10:06:19Z</time>
      </trkpt>
      <trkpt lat="45.3155" lon="6.12258">
        <ele>1771.16</ele>
        <time>2021-06-15T10:06:31Z</time>
      </trkpt>
      <trkpt lat="45.31558" lon="6.12247">
        <ele>1769.98</ele>
        <time>2021-06-15T10:06:49Z</time>
      </trkpt>
      <trkpt lat="45.31556" lon="6.12223">
        <ele>1770.65</ele>
        <time>2021-06-15T10:07:10Z</time>
      </trkpt>
      <trkpt lat="45.31553" lon="6.1221">
        <ele>1772.57</ele>
        <time>2021-06-15T10:07:27Z</time>
      </trkpt>
      <trkpt lat="45.31548" lon="6.12206">
        <ele>1773.68</ele>
        <time>2021-06-15T10:07:42Z</time>
      </trkpt>
      <trkpt lat="45.31545" lon="6.12194">
        <ele>1775.24</ele>
        <time>2021-06-15T10:07:58Z</time>
      </trkpt>
      <trkpt lat="45.31544" lon="6.12183">
        <ele>1776.07</ele>
        <time>2021-06-15T10:08:12Z</time>
      </trkpt>
      <trkpt lat="45.31542" lon="6.1218">
        <ele>1777.12</ele>
        <time>2021-06-15T10:08:25Z</time>
      </trkpt>
      <trkpt lat="45.3154" lon="6.12171">
        <ele>1778.21</ele>
        <time>2021-06-15T10:08:56Z</time>
      </trkpt>
      <trkpt lat="45.31538" lon="6.12155">
        <ele>1779.26</ele>
        <time>2021-06-15T10:09:13Z</time>
      </trkpt>
      <trkpt lat="45.31537" lon="6.12148">
        <ele>1780.48</ele>
        <time>2021-06-15T10:09:27Z</time>
      </trkpt>
      <trkpt lat="45.31536" lon="6.12145">
        <ele>1782.13</ele>
        <time>2021-06-15T10:09:43Z</time>
      </trkpt>
      <trkpt lat="45.31538" lon="6.12142">
        <ele>1782.29</ele>
        <time>2021-06-15T10:09:57Z</time>
      </trkpt>
      <trkpt lat="45.31536" lon="6.12136">
        <ele>1782.62</ele>
        <time>2021-06-15T10:10:16Z</time>
      </trkpt>
      <trkpt lat="45.31535" lon="6.12129">
        <ele>1782.99</ele>
        <time>2021-06-15T10:10:41Z</time>
      </trkpt>
      <trkpt lat="45.31536" lon="6.12118">
        <ele>1784.59</ele>
        <time>2021-06-15T10:10:59Z</time>
      </trkpt>
      <trkpt lat="45.31543" lon="6.12102">
        <ele>1787.16</ele>
        <time>2021-06-15T10:11:16Z</time>
      </trkpt>
      <trkpt lat="45.31549" lon="6.12091">
        <ele>1788.3</ele>
        <time>2021-06-15T10:11:29Z</time>
      </trkpt>
      <trkpt lat="45.31552" lon="6.12082">
        <ele>1788.3</ele>
        <time>2021-06-15T10:11:43Z</time>
      </trkpt>
      <trkpt lat="45.31553" lon="6.12077">
        <ele>1788.02</ele>
        <time>2021-06-15T10:11:49Z</time>
      </trkpt>
      <trkpt lat="45.31555" lon="6.12072">
        <ele>1788.01</ele>
        <time>2021-06-15T10:11:53Z</time>
      </trkpt>
      <trkpt lat="45.31558" lon="6.1206">
        <ele>1789.23</ele>
        <time>2021-06-15T10:12:08Z</time>
      </trkpt>
      <trkpt lat="45.31564" lon="6.12044">
        <ele>1790.95</ele>
        <time>2021-06-15T10:12:30Z</time>
      </trkpt>
      <trkpt lat="45.31564" lon="6.12034">
        <ele>1792.97</ele>
        <time>2021-06-15T10:12:46Z</time>
      </trkpt>
      <trkpt lat="45.31566" lon="6.12028">
        <ele>1793.47</ele>
        <time>2021-06-15T10:12:59Z</time>
      </trkpt>
      <trkpt lat="45.3157" lon="6.12019">
        <ele>1793.63</ele>
        <time>2021-06-15T10:13:12Z</time>
      </trkpt>
      <trkpt lat="45.31577" lon="6.12006">
        <ele>1794.38</ele>
        <time>2021-06-15T10:13:30Z</time>
      </trkpt>
      <trkpt lat="45.31586" lon="6.11995">
        <ele>1795.83</ele>
        <time>2021-06-15T10:13:52Z</time>
      </trkpt>
      <trkpt lat="45.31593" lon="6.11985">
        <ele>1797.57</ele>
        <time>2021-06-15T10:14:14Z</time>
      </trkpt>
      <trkpt lat="45.31596" lon="6.11977">
        <ele>1800.53</ele>
        <time>2021-06-15T10:14:30Z</time>
      </trkpt>
      <trkpt lat="45.31603" lon="6.11961">
        <ele>1802.14</ele>
        <time>2021-06-15T10:14:52Z</time>
      </trkpt>
      <trkpt lat="45.31606" lon="6.11951">
        <ele>1803.79</ele>
        <time>2021-06-15T10:15:10Z</time>
      </trkpt>
      <trkpt lat="45.31606" lon="6.11938">
        <ele>1805.17</ele>
        <time>2021-06-15T10:15:24Z</time>
      </trkpt>
      <trkpt lat="45.31606" lon="6.11929">
        <ele>1806.16</ele>
        <time>2021-06-15T10:15:32Z</time>
      </trkpt>
      <trkpt lat="45.31606" lon="6.11923">
        <ele>1806.64</ele>
        <time>2021-06-15T10:15:37Z</time>
      </trkpt>
      <trkpt lat="45.31605" lon="6.11915">
        <ele>1806.87</ele>
        <time>2021-06-15T10:15:47Z</time>
      </trkpt>
      <trkpt lat="45.31609" lon="6.11916">
        <ele>1806.86</ele>
        <time>2021-06-15T10:16:34Z</time>
      </trkpt>
      <trkpt lat="45.31619" lon="6.11915">
        <ele>1806.82</ele>
        <time>2021-06-15T10:17:06Z</time>
      </trkpt>
      <trkpt lat="45.31616" lon="6.11901">
        <ele>1803.65</ele>
        <time>2021-06-15T10:17:25Z</time>
      </trkpt>
      <trkpt lat="45.31613" lon="6.11882">
        <ele>1801.94</ele>
        <time>2021-06-15T10:17:45Z</time>
      </trkpt>
      <trkpt lat="45.31612" lon="6.1187">
        <ele>1802.74</ele>
        <time>2021-06-15T10:18:01Z</time>
      </trkpt>
      <trkpt lat="45.31609" lon="6.11853">
        <ele>1804.63</ele>
        <time>2021-06-15T10:18:21Z</time>
      </trkpt>
      <trkpt lat="45.31608" lon="6.1184">
        <ele>1805.13</ele>
        <time>2021-06-15T10:18:36Z</time>
      </trkpt>
      <trkpt lat="45.3161" lon="6.1183">
        <ele>1803.48</ele>
        <time>2021-06-15T10:18:53Z</time>
      </trkpt>
      <trkpt lat="45.3161" lon="6.11828">
        <ele>1803.44</ele>
        <time>2021-06-15T10:18:54Z</time>
      </trkpt>
      <trkpt lat="45.31612" lon="6.11819">
        <ele>1802.96</ele>
        <time>2021-06-15T10:19:07Z</time>
      </trkpt>
      <trkpt lat="45.31617" lon="6.11809">
        <ele>1802.21</ele>
        <time>2021-06-15T10:19:24Z</time>
      </trkpt>
      <trkpt lat="45.31618" lon="6.11789">
        <ele>1801.85</ele>
        <time>2021-06-15T10:19:45Z</time>
      </trkpt>
      <trkpt lat="45.3162" lon="6.1178">
        <ele>1803.24</ele>
        <time>2021-06-15T10:20:00Z</time>
      </trkpt>
      <trkpt lat="45.31622" lon="6.11765">
        <ele>1805.19</ele>
        <time>2021-06-15T10:20:17Z</time>
      </trkpt>
      <trkpt lat="45.31625" lon="6.11754">
        <ele>1806.02</ele>
        <time>2021-06-15T10:20:29Z</time>
      </trkpt>
      <trkpt lat="45.31628" lon="6.11745">
        <ele>1806.65</ele>
        <time>2021-06-15T10:20:50Z</time>
      </trkpt>
      <trkpt lat="45.31631" lon="6.11737">
        <ele>1806.5</ele>
        <time>2021-06-15T10:20:59Z</time>
      </trkpt>
      <trkpt lat="45.31633" lon="6.11733">
        <ele>1806.4</ele>
        <time>2021-06-15T10:21:03Z</time>
      </trkpt>
      <trkpt lat="45.31635" lon="6.11729">
        <ele>1806.46</ele>
        <time>2021-06-15T10:21:06Z</time>
      </trkpt>
      <trkpt lat="45.31638" lon="6.11724">
        <ele>1806.51</ele>
        <time>2021-06-15T10:21:11Z</time>
      </trkpt>
      <trkpt lat="45.31641" lon="6.11712">
        <ele>1806.24</ele>
        <time>2021-06-15T10:21:24Z</time>
      </trkpt>
      <trkpt lat="45.31644" lon="6.11698">
        <ele>1806.08</ele>
        <time>2021-06-15T10:21:42Z</time>
      </trkpt>
      <trkpt lat="45.31643" lon="6.11685">
        <ele>1807.7</ele>
        <time>2021-06-15T10:21:57Z</time>
      </trkpt>
      <trkpt lat="45.3164" lon="6.11684">
        <ele>1809.61</ele>
        <time>2021-06-15T10:22:11Z</time>
      </trkpt>
      <trkpt lat="45.31636" lon="6.11681">
        <ele>1812.32</ele>
        <time>2021-06-15T10:22:27Z</time>
      </trkpt>
      <trkpt lat="45.31635" lon="6.11679">
        <ele>1812.84</ele>
        <time>2021-06-15T10:22:30Z</time>
      </trkpt>
      <trkpt lat="45.31634" lon="6.11668">
        <ele>1814.52</ele>
        <time>2021-06-15T10:22:44Z</time>
      </trkpt>
      <trkpt lat="45.31633" lon="6.11658">
        <ele>1817.01</ele>
        <time>2021-06-15T10:23:01Z</time>
      </trkpt>
      <trkpt lat="45.31631" lon="6.1165">
        <ele>1819.81</ele>
        <time>2021-06-15T10:23:19Z</time>
      </trkpt>
      <trkpt lat="45.31631" lon="6.11641">
        <ele>1821.67</ele>
        <time>2021-06-15T10:23:34Z</time>
      </trkpt>
      <trkpt lat="45.31631" lon="6.11632">
        <ele>1822.9</ele>
        <time>2021-06-15T10:23:50Z</time>
      </trkpt>
      <trkpt lat="45.31628" lon="6.11634">
        <ele>1825.18</ele>
        <time>2021-06-15T10:24:07Z</time>
      </trkpt>
      <trkpt lat="45.31626" lon="6.11634">
        <ele>1827.04</ele>
        <time>2021-06-15T10:24:22Z</time>
      </trkpt>
      <trkpt lat="45.31623" lon="6.11632">
        <ele>1828.66</ele>
        <time>2021-06-15T10:24:37Z</time>
      </trkpt>
      <trkpt lat="45.31622" lon="6.11631">
        <ele>1830.4</ele>
        <time>2021-06-15T10:24:55Z</time>
      </trkpt>
      <trkpt lat="45.31619" lon="6.11625">
        <ele>1831.96</ele>
        <time>2021-06-15T10:25:15Z</time>
      </trkpt>
      <trkpt lat="45.31615" lon="6.11624">
        <ele>1834.14</ele>
        <time>2021-06-15T10:25:31Z</time>
      </trkpt>
      <trkpt lat="45.31613" lon="6.11619">
        <ele>1836.35</ele>
        <time>2021-06-15T10:25:49Z</time>
      </trkpt>
      <trkpt lat="45.31611" lon="6.11615">
        <ele>1838.7</ele>
        <time>2021-06-15T10:26:03Z</time>
      </trkpt>
      <trkpt lat="45.31609" lon="6.1161">
        <ele>1841.3</ele>
        <time>2021-06-15T10:26:21Z</time>
      </trkpt>
      <trkpt lat="45.31607" lon="6.11605">
        <ele>1843.92</ele>
        <time>2021-06-15T10:26:37Z</time>
      </trkpt>
      <trkpt lat="45.31607" lon="6.11598">
        <ele>1846.55</ele>
        <time>2021-06-15T10:26:53Z</time>
      </trkpt>
      <trkpt lat="45.31609" lon="6.11594">
        <ele>1848.01</ele>
        <time>2021-06-15T10:27:08Z</time>
      </trkpt>
      <trkpt lat="45.31611" lon="6.11593">
        <ele>1848.11</ele>
        <time>2021-06-15T10:28:09Z</time>
      </trkpt>
      <trkpt lat="45.31614" lon="6.11591">
        <ele>1847.96</ele>
        <time>2021-06-15T10:29:12Z</time>
      </trkpt>
      <trkpt lat="45.31615" lon="6.1159">
        <ele>1847.95</ele>
        <time>2021-06-15T10:29:43Z</time>
      </trkpt>
      <trkpt lat="45.31618" lon="6.11591">
        <ele>1847.88</ele>
        <time>2021-06-15T10:30:12Z</time>
      </trkpt>
      <trkpt lat="45.31624" lon="6.11587">
        <ele>1847.83</ele>
        <time>2021-06-15T10:30:38Z</time>
      </trkpt>
      <trkpt lat="45.31625" lon="6.11585">
        <ele>1847.76</ele>
        <time>2021-06-15T10:30:40Z</time>
      </trkpt>
      <trkpt lat="45.31629" lon="6.11574">
        <ele>1845.56</ele>
        <time>2021-06-15T10:30:55Z</time>
      </trkpt>
      <trkpt lat="45.3163" lon="6.11566">
        <ele>1845.51</ele>
        <time>2021-06-15T10:31:16Z</time>
      </trkpt>
      <trkpt lat="45.31628" lon="6.11561">
        <ele>1847.63</ele>
        <time>2021-06-15T10:31:30Z</time>
      </trkpt>
      <trkpt lat="45.31627" lon="6.11558">
        <ele>1849.91</ele>
        <time>2021-06-15T10:31:48Z</time>
      </trkpt>
      <trkpt lat="45.31623" lon="6.1155">
        <ele>1851.31</ele>
        <time>2021-06-15T10:32:05Z</time>
      </trkpt>
      <trkpt lat="45.31621" lon="6.11544">
        <ele>1853.43</ele>
        <time>2021-06-15T10:32:23Z</time>
      </trkpt>
      <trkpt lat="45.3162" lon="6.11529">
        <ele>1856.25</ele>
        <time>2021-06-15T10:32:44Z</time>
      </trkpt>
      <trkpt lat="45.31621" lon="6.11521">
        <ele>1858.17</ele>
        <time>2021-06-15T10:32:57Z</time>
      </trkpt>
      <trkpt lat="45.31628" lon="6.11511">
        <ele>1859.47</ele>
        <time>2021-06-15T10:33:14Z</time>
      </trkpt>
      <trkpt lat="45.31633" lon="6.11503">
        <ele>1858.94</ele>
        <time>2021-06-15T10:33:28Z</time>
      </trkpt>
      <trkpt lat="45.31648" lon="6.11489">
        <ele>1856.89</ele>
        <time>2021-06-15T10:33:46Z</time>
      </trkpt>
      <trkpt lat="45.31655" lon="6.11476">
        <ele>1856.18</ele>
        <time>2021-06-15T10:34:01Z</time>
      </trkpt>
      <trkpt lat="45.31662" lon="6.11466">
        <ele>1856.53</ele>
        <time>2021-06-15T10:34:12Z</time>
      </trkpt>
      <trkpt lat="45.31669" lon="6.11452">
        <ele>1856.49</ele>
        <time>2021-06-15T10:34:29Z</time>
      </trkpt>
      <trkpt lat="45.31675" lon="6.11441">
        <ele>1858.91</ele>
        <time>2021-06-15T10:34:43Z</time>
      </trkpt>
      <trkpt lat="45.31679" lon="6.11435">
        <ele>1860.82</ele>
        <time>2021-06-15T10:34:58Z</time>
      </trkpt>
      <trkpt lat="45.31685" lon="6.11435">
        <ele>1860.67</ele>
        <time>2021-06-15T10:35:16Z</time>
      </trkpt>
      <trkpt lat="45.31689" lon="6.11435">
        <ele>1861.84</ele>
        <time>2021-06-15T10:35:31Z</time>
      </trkpt>
      <trkpt lat="45.31691" lon="6.11436">
        <ele>1863.01</ele>
        <time>2021-06-15T10:35:43Z</time>
      </trkpt>
      <trkpt lat="45.31695" lon="6.11438">
        <ele>1864.21</ele>
        <time>2021-06-15T10:35:55Z</time>
      </trkpt>
      <trkpt lat="45.31694" lon="6.11436">
        <ele>1865.13</ele>
        <time>2021-06-15T10:36:13Z</time>
      </trkpt>
      <trkpt lat="45.31692" lon="6.11435">
        <ele>1865.05</ele>
        <time>2021-06-15T10:36:18Z</time>
      </trkpt>
      <trkpt lat="45.31688" lon="6.11431">
        <ele>1864.6</ele>
        <time>2021-06-15T10:36:23Z</time>
      </trkpt>
      <trkpt lat="45.31687" lon="6.11421">
        <ele>1863.26</ele>
        <time>2021-06-15T10:36:37Z</time>
      </trkpt>
      <trkpt lat="45.31686" lon="6.11418">
        <ele>1865</ele>
        <time>2021-06-15T10:36:52Z</time>
      </trkpt>
      <trkpt lat="45.31684" lon="6.11416">
        <ele>1866.81</ele>
        <time>2021-06-15T10:37:10Z</time>
      </trkpt>
      <trkpt lat="45.31685" lon="6.11415">
        <ele>1867.54</ele>
        <time>2021-06-15T10:37:43Z</time>
      </trkpt>
      <trkpt lat="45.31689" lon="6.11408">
        <ele>1866.68</ele>
        <time>2021-06-15T10:38:03Z</time>
      </trkpt>
      <trkpt lat="45.31691" lon="6.11408">
        <ele>1864.53</ele>
        <time>2021-06-15T10:38:21Z</time>
      </trkpt>
      <trkpt lat="45.31693" lon="6.114">
        <ele>1864.06</ele>
        <time>2021-06-15T10:38:35Z</time>
      </trkpt>
      <trkpt lat="45.31696" lon="6.11391">
        <ele>1862.2</ele>
        <time>2021-06-15T10:38:49Z</time>
      </trkpt>
      <trkpt lat="45.31702" lon="6.11385">
        <ele>1862.19</ele>
        <time>2021-06-15T10:39:06Z</time>
      </trkpt>
      <trkpt lat="45.31703" lon="6.11377">
        <ele>1861.74</ele>
        <time>2021-06-15T10:39:21Z</time>
      </trkpt>
      <trkpt lat="45.31706" lon="6.11364">
        <ele>1859.96</ele>
        <time>2021-06-15T10:39:37Z</time>
      </trkpt>
      <trkpt lat="45.31708" lon="6.11356">
        <ele>1858.68</ele>
        <time>2021-06-15T10:39:53Z</time>
      </trkpt>
      <trkpt lat="45.3171" lon="6.11351">
        <ele>1856.92</ele>
        <time>2021-06-15T10:40:09Z</time>
      </trkpt>
      <trkpt lat="45.3171" lon="6.11345">
        <ele>1854.65</ele>
        <time>2021-06-15T10:40:26Z</time>
      </trkpt>
      <trkpt lat="45.31713" lon="6.11343">
        <ele>1853.29</ele>
        <time>2021-06-15T10:40:45Z</time>
      </trkpt>
      <trkpt lat="45.31715" lon="6.11338">
        <ele>1853.18</ele>
        <time>2021-06-15T10:40:58Z</time>
      </trkpt>
      <trkpt lat="45.31718" lon="6.11332">
        <ele>1851.64</ele>
        <time>2021-06-15T10:41:15Z</time>
      </trkpt>
      <trkpt lat="45.31718" lon="6.11327">
        <ele>1849.91</ele>
        <time>2021-06-15T10:41:30Z</time>
      </trkpt>
      <trkpt lat="45.31714" lon="6.11325">
        <ele>1847.43</ele>
        <time>2021-06-15T10:41:51Z</time>
      </trkpt>
      <trkpt lat="45.31716" lon="6.11323">
        <ele>1845.48</ele>
        <time>2021-06-15T10:42:15Z</time>
      </trkpt>
      <trkpt lat="45.31712" lon="6.11315">
        <ele>1843.24</ele>
        <time>2021-06-15T10:42:32Z</time>
      </trkpt>
      <trkpt lat="45.31714" lon="6.11309">
        <ele>1840.13</ele>
        <time>2021-06-15T10:42:47Z</time>
      </trkpt>
      <trkpt lat="45.31718" lon="6.11307">
        <ele>1837.01</ele>
        <time>2021-06-15T10:43:03Z</time>
      </trkpt>
      <trkpt lat="45.31719" lon="6.11301">
        <ele>1835.8</ele>
        <time>2021-06-15T10:43:27Z</time>
      </trkpt>
      <trkpt lat="45.31722" lon="6.11296">
        <ele>1834.37</ele>
        <time>2021-06-15T10:43:38Z</time>
      </trkpt>
      <trkpt lat="45.31727" lon="6.11293">
        <ele>1832.1</ele>
        <time>2021-06-15T10:43:53Z</time>
      </trkpt>
      <trkpt lat="45.31733" lon="6.1129">
        <ele>1829.65</ele>
        <time>2021-06-15T10:44:09Z</time>
      </trkpt>
      <trkpt lat="45.3174" lon="6.11285">
        <ele>1826.52</ele>
        <time>2021-06-15T10:44:25Z</time>
      </trkpt>
      <trkpt lat="45.31741" lon="6.11283">
        <ele>1825.78</ele>
        <time>2021-06-15T10:44:28Z</time>
      </trkpt>
      <trkpt lat="45.31746" lon="6.11272">
        <ele>1822.32</ele>
        <time>2021-06-15T10:44:41Z</time>
      </trkpt>
      <trkpt lat="45.31747" lon="6.11256">
        <ele>1819.09</ele>
        <time>2021-06-15T10:44:55Z</time>
      </trkpt>
      <trkpt lat="45.31747" lon="6.1125">
        <ele>1816.4</ele>
        <time>2021-06-15T10:45:12Z</time>
      </trkpt>
      <trkpt lat="45.31741" lon="6.11244">
        <ele>1815.15</ele>
        <time>2021-06-15T10:45:26Z</time>
      </trkpt>
      <trkpt lat="45.31738" lon="6.11245">
        <ele>1814.85</ele>
        <time>2021-06-15T10:45:43Z</time>
      </trkpt>
      <trkpt lat="45.31737" lon="6.11245">
        <ele>1814.81</ele>
        <time>2021-06-15T10:46:02Z</time>
      </trkpt>
      <trkpt lat="45.31737" lon="6.11244">
        <ele>1814.38</ele>
        <time>2021-06-15T10:46:23Z</time>
      </trkpt>
      <trkpt lat="45.31738" lon="6.11243">
        <ele>1813.47</ele>
        <time>2021-06-15T10:46:51Z</time>
      </trkpt>
      <trkpt lat="45.31738" lon="6.11244">
        <ele>1813.73</ele>
        <time>2021-06-15T10:47:36Z</time>
      </trkpt>
      <trkpt lat="45.31737" lon="6.11243">
        <ele>1813.86</ele>
        <time>2021-06-15T10:48:24Z</time>
      </trkpt>
      <trkpt lat="45.31738" lon="6.11244">
        <ele>1813.95</ele>
        <time>2021-06-15T10:49:23Z</time>
      </trkpt>
      <trkpt lat="45.31738" lon="6.11245">
        <ele>1813.72</ele>
        <time>2021-06-15T10:50:24Z</time>
      </trkpt>
      <trkpt lat="45.31738" lon="6.11244">
        <ele>1813.45</ele>
        <time>2021-06-15T10:52:09Z</time>
      </trkpt>
      <trkpt lat="45.31738" lon="6.11246">
        <ele>1812.97</ele>
        <time>2021-06-15T10:54:48Z</time>
      </trkpt>
      <trkpt lat="45.31738" lon="6.11245">
        <ele>1813</ele>
        <time>2021-06-15T10:56:01Z</time>
      </trkpt>
      <trkpt lat="45.31737" lon="6.11247">
        <ele>1813.08</ele>
        <time>2021-06-15T10:57:11Z</time>
      </trkpt>
      <trkpt lat="45.31737" lon="6.11246">
        <ele>1813.21</ele>
        <time>2021-06-15T10:58:14Z</time>
      </trkpt>
      <trkpt lat="45.31738" lon="6.11244">
        <ele>1813.04</ele>
        <time>2021-06-15T10:59:37Z</time>
      </trkpt>
      <trkpt lat="45.31738" lon="6.11245">
        <ele>1813.26</ele>
        <time>2021-06-15T11:00:59Z</time>
      </trkpt>
      <trkpt lat="45.31738" lon="6.11246">
        <ele>1813.22</ele>
        <time>2021-06-15T11:03:37Z</time>
      </trkpt>
      <trkpt lat="45.31737" lon="6.11245">
        <ele>1813.42</ele>
        <time>2021-06-15T11:05:00Z</time>
      </trkpt>
      <trkpt lat="45.31737" lon="6.11245">
        <ele>1813.36</ele>
        <time>2021-06-15T11:06:17Z</time>
      </trkpt>
      <trkpt lat="45.31737" lon="6.11247">
        <ele>1813.26</ele>
        <time>2021-06-15T11:07:11Z</time>
      </trkpt>
      <trkpt lat="45.31737" lon="6.11248">
        <ele>1813.46</ele>
        <time>2021-06-15T11:08:18Z</time>
      </trkpt>
      <trkpt lat="45.31738" lon="6.11248">
        <ele>1813.49</ele>
        <time>2021-06-15T11:09:06Z</time>
      </trkpt>
      <trkpt lat="45.31738" lon="6.11248">
        <ele>1813.52</ele>
        <time>2021-06-15T11:09:56Z</time>
      </trkpt>
      <trkpt lat="45.31738" lon="6.11246">
        <ele>1813.7</ele>
        <time>2021-06-15T11:11:16Z</time>
      </trkpt>
      <trkpt lat="45.31738" lon="6.11246">
        <ele>1813.71</ele>
        <time>2021-06-15T11:12:34Z</time>
      </trkpt>
      <trkpt lat="45.31738" lon="6.11246">
        <ele>1813.9</ele>
        <time>2021-06-15T11:13:50Z</time>
      </trkpt>
      <trkpt lat="45.31738" lon="6.11244">
        <ele>1813.8</ele>
        <time>2021-06-15T11:15:06Z</time>
      </trkpt>
      <trkpt lat="45.3174" lon="6.11245">
        <ele>1813.83</ele>
        <time>2021-06-15T11:16:13Z</time>
      </trkpt>
      <trkpt lat="45.3174" lon="6.11245">
        <ele>1813.91</ele>
        <time>2021-06-15T11:17:17Z</time>
      </trkpt>
      <trkpt lat="45.31741" lon="6.11246">
        <ele>1813.85</ele>
        <time>2021-06-15T11:18:23Z</time>
      </trkpt>
      <trkpt lat="45.3174" lon="6.11244">
        <ele>1813.59</ele>
        <time>2021-06-15T11:19:20Z</time>
      </trkpt>
      <trkpt lat="45.31739" lon="6.11245">
        <ele>1813.64</ele>
        <time>2021-06-15T11:20:20Z</time>
      </trkpt>
      <trkpt lat="45.31739" lon="6.11245">
        <ele>1813.5</ele>
        <time>2021-06-15T11:21:37Z</time>
      </trkpt>
      <trkpt lat="45.3174" lon="6.11246">
        <ele>1813.42</ele>
        <time>2021-06-15T11:22:45Z</time>
      </trkpt>
      <trkpt lat="45.31739" lon="6.11244">
        <ele>1813.4</ele>
        <time>2021-06-15T11:24:07Z</time>
      </trkpt>
      <trkpt lat="45.31742" lon="6.11242">
        <ele>1814.45</ele>
        <time>2021-06-15T11:24:34Z</time>
      </trkpt>
      <trkpt lat="45.31742" lon="6.11241">
        <ele>1813.36</ele>
        <time>2021-06-15T11:24:56Z</time>
      </trkpt>
      <trkpt lat="45.31745" lon="6.11239">
        <ele>1813.27</ele>
        <time>2021-06-15T11:25:16Z</time>
      </trkpt>
      <trkpt lat="45.31751" lon="6.11239">
        <ele>1812.42</ele>
        <time>2021-06-15T11:25:32Z</time>
      </trkpt>
      <trkpt lat="45.31755" lon="6.11231">
        <ele>1811.29</ele>
        <time>2021-06-15T11:25:49Z</time>
      </trkpt>
      <trkpt lat="45.31764" lon="6.11222">
        <ele>1809.47</ele>
        <time>2021-06-15T11:26:05Z</time>
      </trkpt>
      <trkpt lat="45.3177" lon="6.11216">
        <ele>1809.73</ele>
        <time>2021-06-15T11:26:20Z</time>
      </trkpt>
      <trkpt lat="45.31777" lon="6.11205">
        <ele>1809.13</ele>
        <time>2021-06-15T11:26:33Z</time>
      </trkpt>
      <trkpt lat="45.31783" lon="6.11191">
        <ele>1808.12</ele>
        <time>2021-06-15T11:26:49Z</time>
      </trkpt>
      <trkpt lat="45.31789" lon="6.11183">
        <ele>1805.56</ele>
        <time>2021-06-15T11:27:06Z</time>
      </trkpt>
      <trkpt lat="45.31791" lon="6.11176">
        <ele>1802.49</ele>
        <time>2021-06-15T11:27:17Z</time>
      </trkpt>
      <trkpt lat="45.31787" lon="6.11172">
        <ele>1800.95</ele>
        <time>2021-06-15T11:27:27Z</time>
      </trkpt>
      <trkpt lat="45.31783" lon="6.11162">
        <ele>1797.59</ele>
        <time>2021-06-15T11:27:44Z</time>
      </trkpt>
      <trkpt lat="45.31793" lon="6.11154">
        <ele>1794.5</ele>
        <time>2021-06-15T11:27:58Z</time>
      </trkpt>
      <trkpt lat="45.31796" lon="6.11149">
        <ele>1793.32</ele>
        <time>2021-06-15T11:28:03Z</time>
      </trkpt>
      <trkpt lat="45.31802" lon="6.11137">
        <ele>1792.22</ele>
        <time>2021-06-15T11:28:17Z</time>
      </trkpt>
      <trkpt lat="45.31804" lon="6.11124">
        <ele>1791.58</ele>
        <time>2021-06-15T11:28:35Z</time>
      </trkpt>
      <trkpt lat="45.31803" lon="6.11132">
        <ele>1791.05</ele>
        <time>2021-06-15T11:28:57Z</time>
      </trkpt>
      <trkpt lat="45.31794" lon="6.11138">
        <ele>1791.9</ele>
        <time>2021-06-15T11:29:10Z</time>
      </trkpt>
      <trkpt lat="45.31792" lon="6.11135">
        <ele>1791.9</ele>
        <time>2021-06-15T11:29:13Z</time>
      </trkpt>
      <trkpt lat="45.31787" lon="6.11126">
        <ele>1790.34</ele>
        <time>2021-06-15T11:29:27Z</time>
      </trkpt>
      <trkpt lat="45.31783" lon="6.11127">
        <ele>1788.91</ele>
        <time>2021-06-15T11:29:44Z</time>
      </trkpt>
      <trkpt lat="45.31778" lon="6.11129">
        <ele>1787.45</ele>
        <time>2021-06-15T11:29:57Z</time>
      </trkpt>
      <trkpt lat="45.31772" lon="6.11134">
        <ele>1787.1</ele>
        <time>2021-06-15T11:30:06Z</time>
      </trkpt>
      <trkpt lat="45.31761" lon="6.11134">
        <ele>1784.71</ele>
        <time>2021-06-15T11:30:22Z</time>
      </trkpt>
      <trkpt lat="45.31751" lon="6.11134">
        <ele>1781.69</ele>
        <time>2021-06-15T11:30:36Z</time>
      </trkpt>
      <trkpt lat="45.31741" lon="6.11134">
        <ele>1778.62</ele>
        <time>2021-06-15T11:30:50Z</time>
      </trkpt>
      <trkpt lat="45.31736" lon="6.11133">
        <ele>1775.35</ele>
        <time>2021-06-15T11:31:03Z</time>
      </trkpt>
      <trkpt lat="45.31732" lon="6.11135">
        <ele>1774.66</ele>
        <time>2021-06-15T11:31:08Z</time>
      </trkpt>
      <trkpt lat="45.31722" lon="6.11131">
        <ele>1771.7</ele>
        <time>2021-06-15T11:31:25Z</time>
      </trkpt>
      <trkpt lat="45.31724" lon="6.1112">
        <ele>1768.52</ele>
        <time>2021-06-15T11:31:38Z</time>
      </trkpt>
      <trkpt lat="45.31726" lon="6.1111">
        <ele>1765.35</ele>
        <time>2021-06-15T11:31:52Z</time>
      </trkpt>
      <trkpt lat="45.31724" lon="6.11102">
        <ele>1762.34</ele>
        <time>2021-06-15T11:32:07Z</time>
      </trkpt>
      <trkpt lat="45.31716" lon="6.11097">
        <ele>1759.28</ele>
        <time>2021-06-15T11:32:21Z</time>
      </trkpt>
      <trkpt lat="45.31708" lon="6.11096">
        <ele>1756.25</ele>
        <time>2021-06-15T11:32:34Z</time>
      </trkpt>
      <trkpt lat="45.31702" lon="6.11093">
        <ele>1753.22</ele>
        <time>2021-06-15T11:32:45Z</time>
      </trkpt>
      <trkpt lat="45.31699" lon="6.11087">
        <ele>1750.22</ele>
        <time>2021-06-15T11:32:59Z</time>
      </trkpt>
      <trkpt lat="45.31696" lon="6.11083">
        <ele>1747.05</ele>
        <time>2021-06-15T11:33:14Z</time>
      </trkpt>
      <trkpt lat="45.317" lon="6.11073">
        <ele>1744.13</ele>
        <time>2021-06-15T11:33:28Z</time>
      </trkpt>
      <trkpt lat="45.31697" lon="6.11062">
        <ele>1740.89</ele>
        <time>2021-06-15T11:33:45Z</time>
      </trkpt>
      <trkpt lat="45.31696" lon="6.11054">
        <ele>1737.85</ele>
        <time>2021-06-15T11:33:58Z</time>
      </trkpt>
      <trkpt lat="45.31696" lon="6.1105">
        <ele>1734.69</ele>
        <time>2021-06-15T11:34:10Z</time>
      </trkpt>
      <trkpt lat="45.31689" lon="6.11037">
        <ele>1731.53</ele>
        <time>2021-06-15T11:34:25Z</time>
      </trkpt>
      <trkpt lat="45.31687" lon="6.11033">
        <ele>1728.36</ele>
        <time>2021-06-15T11:34:37Z</time>
      </trkpt>
      <trkpt lat="45.31687" lon="6.11019">
        <ele>1725.22</ele>
        <time>2021-06-15T11:34:52Z</time>
      </trkpt>
      <trkpt lat="45.31689" lon="6.11005">
        <ele>1721.97</ele>
        <time>2021-06-15T11:35:05Z</time>
      </trkpt>
      <trkpt lat="45.31688" lon="6.10989">
        <ele>1718.95</ele>
        <time>2021-06-15T11:35:20Z</time>
      </trkpt>
      <trkpt lat="45.3169" lon="6.10978">
        <ele>1717.49</ele>
        <time>2021-06-15T11:35:29Z</time>
      </trkpt>
      <trkpt lat="45.3169" lon="6.10954">
        <ele>1715.83</ele>
        <time>2021-06-15T11:35:48Z</time>
      </trkpt>
      <trkpt lat="45.31689" lon="6.10936">
        <ele>1715.35</ele>
        <time>2021-06-15T11:36:10Z</time>
      </trkpt>
      <trkpt lat="45.31684" lon="6.10925">
        <ele>1714.74</ele>
        <time>2021-06-15T11:36:31Z</time>
      </trkpt>
      <trkpt lat="45.31681" lon="6.10913">
        <ele>1713.3</ele>
        <time>2021-06-15T11:36:49Z</time>
      </trkpt>
      <trkpt lat="45.31673" lon="6.10894">
        <ele>1710.95</ele>
        <time>2021-06-15T11:37:09Z</time>
      </trkpt>
      <trkpt lat="45.31673" lon="6.10893">
        <ele>1710.82</ele>
        <time>2021-06-15T11:37:10Z</time>
      </trkpt>
      <trkpt lat="45.31665" lon="6.10883">
        <ele>1710.45</ele>
        <time>2021-06-15T11:37:24Z</time>
      </trkpt>
      <trkpt lat="45.31667" lon="6.1088">
        <ele>1710.47</ele>
        <time>2021-06-15T11:37:30Z</time>
      </trkpt>
      <trkpt lat="45.31664" lon="6.10873">
        <ele>1709.64</ele>
        <time>2021-06-15T11:37:45Z</time>
      </trkpt>
      <trkpt lat="45.31659" lon="6.10863">
        <ele>1708.06</ele>
        <time>2021-06-15T11:37:59Z</time>
      </trkpt>
      <trkpt lat="45.31654" lon="6.10857">
        <ele>1706.63</ele>
        <time>2021-06-15T11:38:13Z</time>
      </trkpt>
      <trkpt lat="45.31651" lon="6.10849">
        <ele>1705.93</ele>
        <time>2021-06-15T11:38:24Z</time>
      </trkpt>
      <trkpt lat="45.31643" lon="6.10842">
        <ele>1702.92</ele>
        <time>2021-06-15T11:38:41Z</time>
      </trkpt>
      <trkpt lat="45.31636" lon="6.10831">
        <ele>1702.1</ele>
        <time>2021-06-15T11:38:55Z</time>
      </trkpt>
      <trkpt lat="45.31634" lon="6.10829">
        <ele>1701.89</ele>
        <time>2021-06-15T11:38:57Z</time>
      </trkpt>
      <trkpt lat="45.31622" lon="6.10817">
        <ele>1699.08</ele>
        <time>2021-06-15T11:39:12Z</time>
      </trkpt>
      <trkpt lat="45.31612" lon="6.10808">
        <ele>1697.3</ele>
        <time>2021-06-15T11:39:25Z</time>
      </trkpt>
      <trkpt lat="45.31605" lon="6.10805">
        <ele>1697.09</ele>
        <time>2021-06-15T11:39:43Z</time>
      </trkpt>
      <trkpt lat="45.31594" lon="6.10793">
        <ele>1696.34</ele>
        <time>2021-06-15T11:40:02Z</time>
      </trkpt>
      <trkpt lat="45.31586" lon="6.10789">
        <ele>1695.21</ele>
        <time>2021-06-15T11:40:24Z</time>
      </trkpt>
      <trkpt lat="45.31576" lon="6.108">
        <ele>1695.37</ele>
        <time>2021-06-15T11:40:44Z</time>
      </trkpt>
      <trkpt lat="45.31568" lon="6.1081">
        <ele>1694.05</ele>
        <time>2021-06-15T11:41:03Z</time>
      </trkpt>
      <trkpt lat="45.31566" lon="6.10816">
        <ele>1692.37</ele>
        <time>2021-06-15T11:41:28Z</time>
      </trkpt>
      <trkpt lat="45.31566" lon="6.10816">
        <ele>1692.35</ele>
        <time>2021-06-15T11:41:29Z</time>
      </trkpt>
      <trkpt lat="45.31562" lon="6.10812">
        <ele>1692.3</ele>
        <time>2021-06-15T11:41:42Z</time>
      </trkpt>
      <trkpt lat="45.31564" lon="6.10811">
        <ele>1692.22</ele>
        <time>2021-06-15T11:42:39Z</time>
      </trkpt>
      <trkpt lat="45.31561" lon="6.10809">
        <ele>1692.3</ele>
        <time>2021-06-15T11:43:17Z</time>
      </trkpt>
      <trkpt lat="45.31561" lon="6.10808">
        <ele>1692.17</ele>
        <time>2021-06-15T11:43:40Z</time>
      </trkpt>
      <trkpt lat="45.31558" lon="6.10802">
        <ele>1691.99</ele>
        <time>2021-06-15T11:44:25Z</time>
      </trkpt>
      <trkpt lat="45.31555" lon="6.10796">
        <ele>1692.23</ele>
        <time>2021-06-15T11:44:40Z</time>
      </trkpt>
      <trkpt lat="45.31551" lon="6.10791">
        <ele>1692.23</ele>
        <time>2021-06-15T11:44:49Z</time>
      </trkpt>
      <trkpt lat="45.31544" lon="6.10785">
        <ele>1692.22</ele>
        <time>2021-06-15T11:45:03Z</time>
      </trkpt>
      <trkpt lat="45.31542" lon="6.10785">
        <ele>1692.25</ele>
        <time>2021-06-15T11:45:36Z</time>
      </trkpt>
      <trkpt lat="45.31536" lon="6.10778">
        <ele>1692.27</ele>
        <time>2021-06-15T11:45:50Z</time>
      </trkpt>
      <trkpt lat="45.31529" lon="6.10772">
        <ele>1692.27</ele>
        <time>2021-06-15T11:46:05Z</time>
      </trkpt>
      <trkpt lat="45.31517" lon="6.10769">
        <ele>1692.79</ele>
        <time>2021-06-15T11:46:19Z</time>
      </trkpt>
      <trkpt lat="45.31508" lon="6.10773">
        <ele>1692.2</ele>
        <time>2021-06-15T11:46:38Z</time>
      </trkpt>
      <trkpt lat="45.31507" lon="6.1078">
        <ele>1692.12</ele>
        <time>2021-06-15T11:46:56Z</time>
      </trkpt>
      <trkpt lat="45.31507" lon="6.10779">
        <ele>1692.13</ele>
        <time>2021-06-15T11:47:33Z</time>
      </trkpt>
      <trkpt lat="45.31509" lon="6.10782">
        <ele>1691.94</ele>
        <time>2021-06-15T11:48:03Z</time>
      </trkpt>
      <trkpt lat="45.31509" lon="6.10784">
        <ele>1691.99</ele>
        <time>2021-06-15T11:48:19Z</time>
      </trkpt>
      <trkpt lat="45.31506" lon="6.10783">
        <ele>1692.11</ele>
        <time>2021-06-15T11:48:55Z</time>
      </trkpt>
      <trkpt lat="45.31512" lon="6.10793">
        <ele>1692.05</ele>
        <time>2021-06-15T11:49:08Z</time>
      </trkpt>
      <trkpt lat="45.31514" lon="6.10801">
        <ele>1692.05</ele>
        <time>2021-06-15T11:49:22Z</time>
      </trkpt>
      <trkpt lat="45.31522" lon="6.10815">
        <ele>1692.13</ele>
        <time>2021-06-15T11:49:42Z</time>
      </trkpt>
      <trkpt lat="45.31523" lon="6.10816">
        <ele>1692.16</ele>
        <time>2021-06-15T11:49:44Z</time>
      </trkpt>
      <trkpt lat="45.31525" lon="6.10827">
        <ele>1692.27</ele>
        <time>2021-06-15T11:49:57Z</time>
      </trkpt>
      <trkpt lat="45.31533" lon="6.1083">
        <ele>1692.36</ele>
        <time>2021-06-15T11:50:11Z</time>
      </trkpt>
      <trkpt lat="45.31536" lon="6.10836">
        <ele>1692.07</ele>
        <time>2021-06-15T11:50:28Z</time>
      </trkpt>
      <trkpt lat="45.31538" lon="6.10842">
        <ele>1692.18</ele>
        <time>2021-06-15T11:50:42Z</time>
      </trkpt>
      <trkpt lat="45.3154" lon="6.10851">
        <ele>1692.39</ele>
        <time>2021-06-15T11:50:56Z</time>
      </trkpt>
      <trkpt lat="45.31541" lon="6.10852">
        <ele>1692.54</ele>
        <time>2021-06-15T11:51:19Z</time>
      </trkpt>
      <trkpt lat="45.31547" lon="6.10849">
        <ele>1692.55</ele>
        <time>2021-06-15T11:51:34Z</time>
      </trkpt>
      <trkpt lat="45.31557" lon="6.10843">
        <ele>1692.15</ele>
        <time>2021-06-15T11:51:48Z</time>
      </trkpt>
      <trkpt lat="45.31559" lon="6.10835">
        <ele>1691.96</ele>
        <time>2021-06-15T11:52:00Z</time>
      </trkpt>
      <trkpt lat="45.31563" lon="6.10828">
        <ele>1692.31</ele>
        <time>2021-06-15T11:52:19Z</time>
      </trkpt>
      <trkpt lat="45.31565" lon="6.10825">
        <ele>1692.11</ele>
        <time>2021-06-15T11:52:38Z</time>
      </trkpt>
      <trkpt lat="45.31565" lon="6.1082">
        <ele>1692.02</ele>
        <time>2021-06-15T11:52:53Z</time>
      </trkpt>
      <trkpt lat="45.31565" lon="6.10817">
        <ele>1692.23</ele>
        <time>2021-06-15T11:53:57Z</time>
      </trkpt>
      <trkpt lat="45.31572" lon="6.10805">
        <ele>1692.74</ele>
        <time>2021-06-15T11:54:17Z</time>
      </trkpt>
      <trkpt lat="45.31575" lon="6.10803">
        <ele>1693.09</ele>
        <time>2021-06-15T11:54:20Z</time>
      </trkpt>
      <trkpt lat="45.31587" lon="6.10789">
        <ele>1694.95</ele>
        <time>2021-06-15T11:54:40Z</time>
      </trkpt>
      <trkpt lat="45.31588" lon="6.1079">
        <ele>1694.45</ele>
        <time>2021-06-15T11:55:21Z</time>
      </trkpt>
      <trkpt lat="45.31587" lon="6.10788">
        <ele>1694.36</ele>
        <time>2021-06-15T11:56:19Z</time>
      </trkpt>
      <trkpt lat="45.31588" lon="6.10788">
        <ele>1694.27</ele>
        <time>2021-06-15T11:57:00Z</time>
      </trkpt>
      <trkpt lat="45.3159" lon="6.10786">
        <ele>1694.12</ele>
        <time>2021-06-15T11:58:26Z</time>
      </trkpt>
      <trkpt lat="45.31603" lon="6.10783">
        <ele>1692.92</ele>
        <time>2021-06-15T11:58:45Z</time>
      </trkpt>
      <trkpt lat="45.31608" lon="6.10782">
        <ele>1692.27</ele>
        <time>2021-06-15T11:58:50Z</time>
      </trkpt>
      <trkpt lat="45.31621" lon="6.10786">
        <ele>1690.51</ele>
        <time>2021-06-15T11:59:08Z</time>
      </trkpt>
      <trkpt lat="45.31623" lon="6.10787">
        <ele>1690.47</ele>
        <time>2021-06-15T11:59:11Z</time>
      </trkpt>
      <trkpt lat="45.31633" lon="6.10793">
        <ele>1690.27</ele>
        <time>2021-06-15T11:59:33Z</time>
      </trkpt>
      <trkpt lat="45.3164" lon="6.10797">
        <ele>1690.24</ele>
        <time>2021-06-15T12:00:03Z</time>
      </trkpt>
      <trkpt lat="45.31641" lon="6.10797">
        <ele>1690.24</ele>
        <time>2021-06-15T12:00:04Z</time>
      </trkpt>
      <trkpt lat="45.31645" lon="6.10799">
        <ele>1690.14</ele>
        <time>2021-06-15T12:00:08Z</time>
      </trkpt>
      <trkpt lat="45.31659" lon="6.10805">
        <ele>1689.58</ele>
        <time>2021-06-15T12:00:26Z</time>
      </trkpt>
      <trkpt lat="45.3167" lon="6.10809">
        <ele>1689.24</ele>
        <time>2021-06-15T12:00:43Z</time>
      </trkpt>
      <trkpt lat="45.31673" lon="6.1081">
        <ele>1689.21</ele>
        <time>2021-06-15T12:00:46Z</time>
      </trkpt>
      <trkpt lat="45.31689" lon="6.10821">
        <ele>1688.38</ele>
        <time>2021-06-15T12:01:06Z</time>
      </trkpt>
      <trkpt lat="45.31701" lon="6.10828">
        <ele>1687.99</ele>
        <time>2021-06-15T12:01:23Z</time>
      </trkpt>
      <trkpt lat="45.31716" lon="6.10837">
        <ele>1687.16</ele>
        <time>2021-06-15T12:01:42Z</time>
      </trkpt>
      <trkpt lat="45.31719" lon="6.10838">
        <ele>1686.96</ele>
        <time>2021-06-15T12:01:45Z</time>
      </trkpt>
      <trkpt lat="45.31736" lon="6.10842">
        <ele>1685.12</ele>
        <time>2021-06-15T12:02:02Z</time>
      </trkpt>
      <trkpt lat="45.31747" lon="6.10837">
        <ele>1683.07</ele>
        <time>2021-06-15T12:02:16Z</time>
      </trkpt>
      <trkpt lat="45.31759" lon="6.10836">
        <ele>1681.75</ele>
        <time>2021-06-15T12:02:31Z</time>
      </trkpt>
      <trkpt lat="45.31779" lon="6.10832">
        <ele>1679.29</ele>
        <time>2021-06-15T12:02:52Z</time>
      </trkpt>
      <trkpt lat="45.31781" lon="6.1083">
        <ele>1679.21</ele>
        <time>2021-06-15T12:02:54Z</time>
      </trkpt>
      <trkpt lat="45.31786" lon="6.10816">
        <ele>1677.54</ele>
        <time>2021-06-15T12:03:10Z</time>
      </trkpt>
      <trkpt lat="45.31797" lon="6.10802">
        <ele>1676.52</ele>
        <time>2021-06-15T12:03:25Z</time>
      </trkpt>
      <trkpt lat="45.3181" lon="6.10789">
        <ele>1675.02</ele>
        <time>2021-06-15T12:03:48Z</time>
      </trkpt>
      <trkpt lat="45.3182" lon="6.10778">
        <ele>1673.36</ele>
        <time>2021-06-15T12:04:07Z</time>
      </trkpt>
      <trkpt lat="45.31844" lon="6.10772">
        <ele>1672.42</ele>
        <time>2021-06-15T12:04:28Z</time>
      </trkpt>
      <trkpt lat="45.31862" lon="6.10763">
        <ele>1670.91</ele>
        <time>2021-06-15T12:04:52Z</time>
      </trkpt>
      <trkpt lat="45.31879" lon="6.1076">
        <ele>1667.89</ele>
        <time>2021-06-15T12:05:09Z</time>
      </trkpt>
      <trkpt lat="45.31898" lon="6.10767">
        <ele>1666.73</ele>
        <time>2021-06-15T12:05:29Z</time>
      </trkpt>
      <trkpt lat="45.3191" lon="6.10773">
        <ele>1665.41</ele>
        <time>2021-06-15T12:05:45Z</time>
      </trkpt>
      <trkpt lat="45.31914" lon="6.10775">
        <ele>1665.05</ele>
        <time>2021-06-15T12:05:49Z</time>
      </trkpt>
      <trkpt lat="45.31917" lon="6.10776">
        <ele>1664.65</ele>
        <time>2021-06-15T12:05:52Z</time>
      </trkpt>
      <trkpt lat="45.31928" lon="6.10788">
        <ele>1661.51</ele>
        <time>2021-06-15T12:06:08Z</time>
      </trkpt>
      <trkpt lat="45.31937" lon="6.10801">
        <ele>1660.62</ele>
        <time>2021-06-15T12:06:22Z</time>
      </trkpt>
      <trkpt lat="45.31937" lon="6.10801">
        <ele>1660.62</ele>
        <time>2021-06-15T12:06:23Z</time>
      </trkpt>
      <trkpt lat="45.31947" lon="6.10808">
        <ele>1660.89</ele>
        <time>2021-06-15T12:06:36Z</time>
      </trkpt>
      <trkpt lat="45.31956" lon="6.10819">
        <ele>1659.23</ele>
        <time>2021-06-15T12:06:51Z</time>
      </trkpt>
      <trkpt lat="45.31967" lon="6.10828">
        <ele>1658.27</ele>
        <time>2021-06-15T12:07:06Z</time>
      </trkpt>
      <trkpt lat="45.31976" lon="6.10834">
        <ele>1657.51</ele>
        <time>2021-06-15T12:07:19Z</time>
      </trkpt>
      <trkpt lat="45.3198" lon="6.10836">
        <ele>1657.36</ele>
        <time>2021-06-15T12:07:24Z</time>
      </trkpt>
      <trkpt lat="45.31988" lon="6.10842">
        <ele>1656.72</ele>
        <time>2021-06-15T12:07:35Z</time>
      </trkpt>
      <trkpt lat="45.31998" lon="6.1085">
        <ele>1656.52</ele>
        <time>2021-06-15T12:07:51Z</time>
      </trkpt>
      <trkpt lat="45.32011" lon="6.1085">
        <ele>1656.14</ele>
        <time>2021-06-15T12:08:10Z</time>
      </trkpt>
      <trkpt lat="45.32024" lon="6.10857">
        <ele>1654.63</ele>
        <time>2021-06-15T12:08:33Z</time>
      </trkpt>
      <trkpt lat="45.32029" lon="6.1086">
        <ele>1654.28</ele>
        <time>2021-06-15T12:09:17Z</time>
      </trkpt>
      <trkpt lat="45.3204" lon="6.10866">
        <ele>1654.08</ele>
        <time>2021-06-15T12:09:36Z</time>
      </trkpt>
      <trkpt lat="45.32056" lon="6.10874">
        <ele>1653.56</ele>
        <time>2021-06-15T12:09:57Z</time>
      </trkpt>
      <trkpt lat="45.32071" lon="6.10879">
        <ele>1653.36</ele>
        <time>2021-06-15T12:10:18Z</time>
      </trkpt>
      <trkpt lat="45.32093" lon="6.10893">
        <ele>1653.28</ele>
        <time>2021-06-15T12:10:41Z</time>
      </trkpt>
      <trkpt lat="45.3211" lon="6.10901">
        <ele>1651.98</ele>
        <time>2021-06-15T12:11:03Z</time>
      </trkpt>
      <trkpt lat="45.32123" lon="6.10904">
        <ele>1648.91</ele>
        <time>2021-06-15T12:11:17Z</time>
      </trkpt>
      <trkpt lat="45.32135" lon="6.10907">
        <ele>1647.11</ele>
        <time>2021-06-15T12:11:35Z</time>
      </trkpt>
      <trkpt lat="45.32149" lon="6.10913">
        <ele>1645.45</ele>
        <time>2021-06-15T12:11:54Z</time>
      </trkpt>
      <trkpt lat="45.32167" lon="6.10913">
        <ele>1644.18</ele>
        <time>2021-06-15T12:12:17Z</time>
      </trkpt>
      <trkpt lat="45.32183" lon="6.10907">
        <ele>1641.19</ele>
        <time>2021-06-15T12:12:43Z</time>
      </trkpt>
      <trkpt lat="45.32199" lon="6.10908">
        <ele>1639.18</ele>
        <time>2021-06-15T12:13:06Z</time>
      </trkpt>
      <trkpt lat="45.32219" lon="6.10912">
        <ele>1636.14</ele>
        <time>2021-06-15T12:13:28Z</time>
      </trkpt>
      <trkpt lat="45.32239" lon="6.10924">
        <ele>1635.21</ele>
        <time>2021-06-15T12:13:50Z</time>
      </trkpt>
      <trkpt lat="45.32249" lon="6.10928">
        <ele>1634.94</ele>
        <time>2021-06-15T12:14:10Z</time>
      </trkpt>
      <trkpt lat="45.32264" lon="6.10932">
        <ele>1632.25</ele>
        <time>2021-06-15T12:14:36Z</time>
      </trkpt>
      <trkpt lat="45.3227" lon="6.10933">
        <ele>1632.17</ele>
        <time>2021-06-15T12:15:05Z</time>
      </trkpt>
      <trkpt lat="45.32268" lon="6.10934">
        <ele>1632.19</ele>
        <time>2021-06-15T12:15:43Z</time>
      </trkpt>
      <trkpt lat="45.32267" lon="6.10935">
        <ele>1632.13</ele>
        <time>2021-06-15T12:16:22Z</time>
      </trkpt>
      <trkpt lat="45.32267" lon="6.10938">
        <ele>1632.87</ele>
        <time>2021-06-15T12:16:30Z</time>
      </trkpt>
      <trkpt lat="45.32264" lon="6.10935">
        <ele>1633.57</ele>
        <time>2021-06-15T12:17:18Z</time>
      </trkpt>
      <trkpt lat="45.32265" lon="6.10927">
        <ele>1632.09</ele>
        <time>2021-06-15T12:17:43Z</time>
      </trkpt>
      <trkpt lat="45.32281" lon="6.10927">
        <ele>1629.16</ele>
        <time>2021-06-15T12:18:06Z</time>
      </trkpt>
      <trkpt lat="45.32288" lon="6.10925">
        <ele>1626.12</ele>
        <time>2021-06-15T12:18:19Z</time>
      </trkpt>
      <trkpt lat="45.32296" lon="6.10925">
        <ele>1623.04</ele>
        <time>2021-06-15T12:18:32Z</time>
      </trkpt>
      <trkpt lat="45.32307" lon="6.10924">
        <ele>1619.99</ele>
        <time>2021-06-15T12:18:45Z</time>
      </trkpt>
      <trkpt lat="45.32321" lon="6.10929">
        <ele>1616.76</ele>
        <time>2021-06-15T12:19:01Z</time>
      </trkpt>
      <trkpt lat="45.32329" lon="6.10932">
        <ele>1613.61</ele>
        <time>2021-06-15T12:19:16Z</time>
      </trkpt>
      <trkpt lat="45.32344" lon="6.10939">
        <ele>1610.6</ele>
        <time>2021-06-15T12:19:34Z</time>
      </trkpt>
      <trkpt lat="45.32355" lon="6.10937">
        <ele>1607.58</ele>
        <time>2021-06-15T12:19:48Z</time>
      </trkpt>
      <trkpt lat="45.32366" lon="6.1094">
        <ele>1604.51</ele>
        <time>2021-06-15T12:20:03Z</time>
      </trkpt>
      <trkpt lat="45.32375" lon="6.10936">
        <ele>1601.36</ele>
        <time>2021-06-15T12:20:15Z</time>
      </trkpt>
      <trkpt lat="45.32383" lon="6.10928">
        <ele>1598.23</ele>
        <time>2021-06-15T12:20:32Z</time>
      </trkpt>
      <trkpt lat="45.32384" lon="6.10923">
        <ele>1595.23</ele>
        <time>2021-06-15T12:20:45Z</time>
      </trkpt>
      <trkpt lat="45.32384" lon="6.10913">
        <ele>1592.1</ele>
        <time>2021-06-15T12:20:59Z</time>
      </trkpt>
      <trkpt lat="45.32382" lon="6.10896">
        <ele>1588.98</ele>
        <time>2021-06-15T12:21:14Z</time>
      </trkpt>
      <trkpt lat="45.3239" lon="6.10878">
        <ele>1585.87</ele>
        <time>2021-06-15T12:21:29Z</time>
      </trkpt>
      <trkpt lat="45.32409" lon="6.10874">
        <ele>1582.73</ele>
        <time>2021-06-15T12:21:49Z</time>
      </trkpt>
      <trkpt lat="45.3242" lon="6.10878">
        <ele>1579.58</ele>
        <time>2021-06-15T12:22:03Z</time>
      </trkpt>
      <trkpt lat="45.3243" lon="6.10884">
        <ele>1576.31</ele>
        <time>2021-06-15T12:22:19Z</time>
      </trkpt>
      <trkpt lat="45.32437" lon="6.10884">
        <ele>1573.28</ele>
        <time>2021-06-15T12:22:33Z</time>
      </trkpt>
      <trkpt lat="45.3245" lon="6.10885">
        <ele>1570.19</ele>
        <time>2021-06-15T12:22:49Z</time>
      </trkpt>
      <trkpt lat="45.32472" lon="6.10889">
        <ele>1568.48</ele>
        <time>2021-06-15T12:23:11Z</time>
      </trkpt>
      <trkpt lat="45.32485" lon="6.10897">
        <ele>1566.06</ele>
        <time>2021-06-15T12:23:30Z</time>
      </trkpt>
      <trkpt lat="45.32496" lon="6.10896">
        <ele>1562.85</ele>
        <time>2021-06-15T12:23:44Z</time>
      </trkpt>
      <trkpt lat="45.32505" lon="6.10893">
        <ele>1559.8</ele>
        <time>2021-06-15T12:23:57Z</time>
      </trkpt>
      <trkpt lat="45.32515" lon="6.10892">
        <ele>1556.7</ele>
        <time>2021-06-15T12:24:10Z</time>
      </trkpt>
      <trkpt lat="45.32528" lon="6.10888">
        <ele>1553.65</ele>
        <time>2021-06-15T12:24:25Z</time>
      </trkpt>
      <trkpt lat="45.32538" lon="6.10884">
        <ele>1550.55</ele>
        <time>2021-06-15T12:24:38Z</time>
      </trkpt>
      <trkpt lat="45.32552" lon="6.10886">
        <ele>1547.46</ele>
        <time>2021-06-15T12:24:53Z</time>
      </trkpt>
      <trkpt lat="45.3257" lon="6.1089">
        <ele>1544.53</ele>
        <time>2021-06-15T12:25:13Z</time>
      </trkpt>
      <trkpt lat="45.32584" lon="6.1089">
        <ele>1541.53</ele>
        <time>2021-06-15T12:25:31Z</time>
      </trkpt>
      <trkpt lat="45.32592" lon="6.10886">
        <ele>1538.36</ele>
        <time>2021-06-15T12:25:44Z</time>
      </trkpt>
      <trkpt lat="45.32602" lon="6.10886">
        <ele>1535.29</ele>
        <time>2021-06-15T12:26:00Z</time>
      </trkpt>
      <trkpt lat="45.32612" lon="6.10887">
        <ele>1532.7</ele>
        <time>2021-06-15T12:26:13Z</time>
      </trkpt>
      <trkpt lat="45.32636" lon="6.10887">
        <ele>1530.8</ele>
        <time>2021-06-15T12:26:32Z</time>
      </trkpt>
      <trkpt lat="45.32657" lon="6.10893">
        <ele>1529.28</ele>
        <time>2021-06-15T12:26:55Z</time>
      </trkpt>
      <trkpt lat="45.32678" lon="6.10898">
        <ele>1526.48</ele>
        <time>2021-06-15T12:27:19Z</time>
      </trkpt>
      <trkpt lat="45.32697" lon="6.10898">
        <ele>1523.32</ele>
        <time>2021-06-15T12:27:38Z</time>
      </trkpt>
      <trkpt lat="45.32706" lon="6.1089">
        <ele>1521.3</ele>
        <time>2021-06-15T12:27:49Z</time>
      </trkpt>
      <trkpt lat="45.32718" lon="6.10879">
        <ele>1518.46</ele>
        <time>2021-06-15T12:28:09Z</time>
      </trkpt>
      <trkpt lat="45.32735" lon="6.10862">
        <ele>1516.09</ele>
        <time>2021-06-15T12:28:31Z</time>
      </trkpt>
      <trkpt lat="45.32753" lon="6.10848">
        <ele>1512.99</ele>
        <time>2021-06-15T12:28:51Z</time>
      </trkpt>
      <trkpt lat="45.32762" lon="6.10842">
        <ele>1509.77</ele>
        <time>2021-06-15T12:29:07Z</time>
      </trkpt>
      <trkpt lat="45.32775" lon="6.10835">
        <ele>1506.6</ele>
        <time>2021-06-15T12:29:26Z</time>
      </trkpt>
      <trkpt lat="45.32782" lon="6.10827">
        <ele>1503.55</ele>
        <time>2021-06-15T12:29:40Z</time>
      </trkpt>
      <trkpt lat="45.32799" lon="6.10808">
        <ele>1500.42</ele>
        <time>2021-06-15T12:29:58Z</time>
      </trkpt>
      <trkpt lat="45.32811" lon="6.10801">
        <ele>1497.36</ele>
        <time>2021-06-15T12:30:18Z</time>
      </trkpt>
      <trkpt lat="45.32824" lon="6.1079">
        <ele>1494.33</ele>
        <time>2021-06-15T12:30:35Z</time>
      </trkpt>
      <trkpt lat="45.32834" lon="6.1078">
        <ele>1491.26</ele>
        <time>2021-06-15T12:30:51Z</time>
      </trkpt>
      <trkpt lat="45.32853" lon="6.10775">
        <ele>1488.2</ele>
        <time>2021-06-15T12:31:11Z</time>
      </trkpt>
      <trkpt lat="45.32867" lon="6.10771">
        <ele>1485.13</ele>
        <time>2021-06-15T12:31:31Z</time>
      </trkpt>
      <trkpt lat="45.32875" lon="6.1075">
        <ele>1482.07</ele>
        <time>2021-06-15T12:31:53Z</time>
      </trkpt>
      <trkpt lat="45.32894" lon="6.10739">
        <ele>1479.14</ele>
        <time>2021-06-15T12:32:14Z</time>
      </trkpt>
      <trkpt lat="45.32924" lon="6.1072">
        <ele>1476.1</ele>
        <time>2021-06-15T12:32:39Z</time>
      </trkpt>
      <trkpt lat="45.32938" lon="6.10722">
        <ele>1473.06</ele>
        <time>2021-06-15T12:32:59Z</time>
      </trkpt>
      <trkpt lat="45.32951" lon="6.10725">
        <ele>1469.94</ele>
        <time>2021-06-15T12:33:20Z</time>
      </trkpt>
      <trkpt lat="45.32955" lon="6.10726">
        <ele>1468.12</ele>
        <time>2021-06-15T12:33:56Z</time>
      </trkpt>
      <trkpt lat="45.32955" lon="6.10725">
        <ele>1468.02</ele>
        <time>2021-06-15T12:34:43Z</time>
      </trkpt>
      <trkpt lat="45.32969" lon="6.10733">
        <ele>1468.18</ele>
        <time>2021-06-15T12:35:29Z</time>
      </trkpt>
      <trkpt lat="45.32967" lon="6.1073">
        <ele>1468.13</ele>
        <time>2021-06-15T12:35:34Z</time>
      </trkpt>
      <trkpt lat="45.32956" lon="6.10729">
        <ele>1468.27</ele>
        <time>2021-06-15T12:36:45Z</time>
      </trkpt>
      <trkpt lat="45.32956" lon="6.10728">
        <ele>1468.1</ele>
        <time>2021-06-15T12:38:11Z</time>
      </trkpt>
      <trkpt lat="45.32964" lon="6.10724">
        <ele>1467.49</ele>
        <time>2021-06-15T12:39:12Z</time>
      </trkpt>
      <trkpt lat="45.32973" lon="6.10715">
        <ele>1464.76</ele>
        <time>2021-06-15T12:39:33Z</time>
      </trkpt>
      <trkpt lat="45.32984" lon="6.10702">
        <ele>1461.66</ele>
        <time>2021-06-15T12:39:51Z</time>
      </trkpt>
      <trkpt lat="45.32993" lon="6.10689">
        <ele>1458.65</ele>
        <time>2021-06-15T12:40:06Z</time>
      </trkpt>
      <trkpt lat="45.33007" lon="6.1068">
        <ele>1455.5</ele>
        <time>2021-06-15T12:40:25Z</time>
      </trkpt>
      <trkpt lat="45.33019" lon="6.10671">
        <ele>1452.49</ele>
        <time>2021-06-15T12:40:44Z</time>
      </trkpt>
      <trkpt lat="45.33026" lon="6.10665">
        <ele>1449.35</ele>
        <time>2021-06-15T12:41:02Z</time>
      </trkpt>
      <trkpt lat="45.33029" lon="6.10656">
        <ele>1446.31</ele>
        <time>2021-06-15T12:41:17Z</time>
      </trkpt>
      <trkpt lat="45.33032" lon="6.10647">
        <ele>1443.98</ele>
        <time>2021-06-15T12:41:42Z</time>
      </trkpt>
      <trkpt lat="45.33046" lon="6.10623">
        <ele>1440.99</ele>
        <time>2021-06-15T12:42:10Z</time>
      </trkpt>
      <trkpt lat="45.33045" lon="6.10627">
        <ele>1440.73</ele>
        <time>2021-06-15T12:43:01Z</time>
      </trkpt>
      <trkpt lat="45.3306" lon="6.10639">
        <ele>1438.89</ele>
        <time>2021-06-15T12:43:30Z</time>
      </trkpt>
      <trkpt lat="45.33076" lon="6.10655">
        <ele>1435.8</ele>
        <time>2021-06-15T12:43:46Z</time>
      </trkpt>
      <trkpt lat="45.33089" lon="6.10663">
        <ele>1432.62</ele>
        <time>2021-06-15T12:44:00Z</time>
      </trkpt>
      <trkpt lat="45.33105" lon="6.10674">
        <ele>1429.55</ele>
        <time>2021-06-15T12:44:14Z</time>
      </trkpt>
      <trkpt lat="45.33117" lon="6.10682">
        <ele>1426.41</ele>
        <time>2021-06-15T12:44:28Z</time>
      </trkpt>
      <trkpt lat="45.33125" lon="6.10687">
        <ele>1423.19</ele>
        <time>2021-06-15T12:44:41Z</time>
      </trkpt>
      <trkpt lat="45.33139" lon="6.10698">
        <ele>1420.08</ele>
        <time>2021-06-15T12:44:56Z</time>
      </trkpt>
      <trkpt lat="45.33154" lon="6.10708">
        <ele>1416.94</ele>
        <time>2021-06-15T12:45:13Z</time>
      </trkpt>
      <trkpt lat="45.33167" lon="6.1072">
        <ele>1414.12</ele>
        <time>2021-06-15T12:45:30Z</time>
      </trkpt>
      <trkpt lat="45.33188" lon="6.10747">
        <ele>1410.98</ele>
        <time>2021-06-15T12:45:55Z</time>
      </trkpt>
      <trkpt lat="45.33195" lon="6.10762">
        <ele>1407.98</ele>
        <time>2021-06-15T12:46:07Z</time>
      </trkpt>
      <trkpt lat="45.33205" lon="6.1079">
        <ele>1405.89</ele>
        <time>2021-06-15T12:46:31Z</time>
      </trkpt>
      <trkpt lat="45.33219" lon="6.10819">
        <ele>1404.47</ele>
        <time>2021-06-15T12:46:55Z</time>
      </trkpt>
      <trkpt lat="45.33229" lon="6.1084">
        <ele>1403.72</ele>
        <time>2021-06-15T12:47:16Z</time>
      </trkpt>
      <trkpt lat="45.33235" lon="6.10858">
        <ele>1402.55</ele>
        <time>2021-06-15T12:47:31Z</time>
      </trkpt>
      <trkpt lat="45.33234" lon="6.10865">
        <ele>1402.26</ele>
        <time>2021-06-15T12:47:54Z</time>
      </trkpt>
      <trkpt lat="45.33235" lon="6.10866">
        <ele>1401.32</ele>
        <time>2021-06-15T12:48:16Z</time>
      </trkpt>
      <trkpt lat="45.33232" lon="6.10865">
        <ele>1401.31</ele>
        <time>2021-06-15T12:49:01Z</time>
      </trkpt>
      <trkpt lat="45.33238" lon="6.10882">
        <ele>1401.38</ele>
        <time>2021-06-15T12:49:18Z</time>
      </trkpt>
      <trkpt lat="45.33246" lon="6.10899">
        <ele>1398.4</ele>
        <time>2021-06-15T12:49:41Z</time>
      </trkpt>
      <trkpt lat="45.33257" lon="6.1092">
        <ele>1395.13</ele>
        <time>2021-06-15T12:50:03Z</time>
      </trkpt>
      <trkpt lat="45.33258" lon="6.10921">
        <ele>1394.92</ele>
        <time>2021-06-15T12:50:04Z</time>
      </trkpt>
      <trkpt lat="45.33262" lon="6.10929">
        <ele>1393.38</ele>
        <time>2021-06-15T12:50:08Z</time>
      </trkpt>
      <trkpt lat="45.33272" lon="6.10954">
        <ele>1389.98</ele>
        <time>2021-06-15T12:50:35Z</time>
      </trkpt>
      <trkpt lat="45.33282" lon="6.10966">
        <ele>1386.96</ele>
        <time>2021-06-15T12:50:51Z</time>
      </trkpt>
      <trkpt lat="45.33285" lon="6.10973">
        <ele>1385.62</ele>
        <time>2021-06-15T12:51:10Z</time>
      </trkpt>
      <trkpt lat="45.33284" lon="6.10979">
        <ele>1385.59</ele>
        <time>2021-06-15T12:51:44Z</time>
      </trkpt>
      <trkpt lat="45.33282" lon="6.10976">
        <ele>1385.55</ele>
        <time>2021-06-15T12:51:59Z</time>
      </trkpt>
      <trkpt lat="45.33284" lon="6.10971">
        <ele>1385.72</ele>
        <time>2021-06-15T12:52:35Z</time>
      </trkpt>
      <trkpt lat="45.33288" lon="6.10989">
        <ele>1385.16</ele>
        <time>2021-06-15T12:53:05Z</time>
      </trkpt>
      <trkpt lat="45.33295" lon="6.11012">
        <ele>1382</ele>
        <time>2021-06-15T12:53:24Z</time>
      </trkpt>
      <trkpt lat="45.33301" lon="6.11023">
        <ele>1378.89</ele>
        <time>2021-06-15T12:53:38Z</time>
      </trkpt>
      <trkpt lat="45.33304" lon="6.11029">
        <ele>1375.78</ele>
        <time>2021-06-15T12:53:49Z</time>
      </trkpt>
      <trkpt lat="45.33309" lon="6.11033">
        <ele>1372.62</ele>
        <time>2021-06-15T12:54:00Z</time>
      </trkpt>
      <trkpt lat="45.33317" lon="6.11045">
        <ele>1369.49</ele>
        <time>2021-06-15T12:54:13Z</time>
      </trkpt>
      <trkpt lat="45.33314" lon="6.11059">
        <ele>1367.92</ele>
        <time>2021-06-15T12:54:22Z</time>
      </trkpt>
      <trkpt lat="45.33312" lon="6.11063">
        <ele>1367.8</ele>
        <time>2021-06-15T12:54:24Z</time>
      </trkpt>
      <trkpt lat="45.33313" lon="6.11069">
        <ele>1366.89</ele>
        <time>2021-06-15T12:54:29Z</time>
      </trkpt>
      <trkpt lat="45.33312" lon="6.11084">
        <ele>1363.7</ele>
        <time>2021-06-15T12:54:48Z</time>
      </trkpt>
      <trkpt lat="45.33312" lon="6.11094">
        <ele>1362.45</ele>
        <time>2021-06-15T12:54:57Z</time>
      </trkpt>
      <trkpt lat="45.33303" lon="6.11114">
        <ele>1358.91</ele>
        <time>2021-06-15T12:55:13Z</time>
      </trkpt>
      <trkpt lat="45.333" lon="6.11134">
        <ele>1355.86</ele>
        <time>2021-06-15T12:55:30Z</time>
      </trkpt>
      <trkpt lat="45.33292" lon="6.11154">
        <ele>1352.67</ele>
        <time>2021-06-15T12:55:44Z</time>
      </trkpt>
      <trkpt lat="45.33282" lon="6.11166">
        <ele>1349.57</ele>
        <time>2021-06-15T12:56:02Z</time>
      </trkpt>
      <trkpt lat="45.3328" lon="6.11181">
        <ele>1346.54</ele>
        <time>2021-06-15T12:56:15Z</time>
      </trkpt>
      <trkpt lat="45.33272" lon="6.11199">
        <ele>1343.23</ele>
        <time>2021-06-15T12:56:31Z</time>
      </trkpt>
      <trkpt lat="45.33271" lon="6.11217">
        <ele>1340.1</ele>
        <time>2021-06-15T12:56:47Z</time>
      </trkpt>
      <trkpt lat="45.33268" lon="6.11232">
        <ele>1336.93</ele>
        <time>2021-06-15T12:57:02Z</time>
      </trkpt>
      <trkpt lat="45.33265" lon="6.11253">
        <ele>1333.75</ele>
        <time>2021-06-15T12:57:18Z</time>
      </trkpt>
      <trkpt lat="45.33256" lon="6.11269">
        <ele>1330.59</ele>
        <time>2021-06-15T12:57:38Z</time>
      </trkpt>
      <trkpt lat="45.33244" lon="6.11277">
        <ele>1327.45</ele>
        <time>2021-06-15T12:57:54Z</time>
      </trkpt>
      <trkpt lat="45.33235" lon="6.11288">
        <ele>1324.41</ele>
        <time>2021-06-15T12:58:09Z</time>
      </trkpt>
      <trkpt lat="45.3323" lon="6.11293">
        <ele>1321.23</ele>
        <time>2021-06-15T12:58:21Z</time>
      </trkpt>
      <trkpt lat="45.33226" lon="6.11304">
        <ele>1318.09</ele>
        <time>2021-06-15T12:58:34Z</time>
      </trkpt>
      <trkpt lat="45.33221" lon="6.11312">
        <ele>1314.88</ele>
        <time>2021-06-15T12:58:49Z</time>
      </trkpt>
      <trkpt lat="45.33215" lon="6.11326">
        <ele>1311.86</ele>
        <time>2021-06-15T12:59:04Z</time>
      </trkpt>
      <trkpt lat="45.33212" lon="6.11338">
        <ele>1308.76</ele>
        <time>2021-06-15T12:59:16Z</time>
      </trkpt>
      <trkpt lat="45.33207" lon="6.11349">
        <ele>1305.64</ele>
        <time>2021-06-15T12:59:31Z</time>
      </trkpt>
      <trkpt lat="45.33195" lon="6.11364">
        <ele>1302.59</ele>
        <time>2021-06-15T12:59:48Z</time>
      </trkpt>
      <trkpt lat="45.33181" lon="6.1137">
        <ele>1299.42</ele>
        <time>2021-06-15T13:00:04Z</time>
      </trkpt>
      <trkpt lat="45.33176" lon="6.11372">
        <ele>1297.06</ele>
        <time>2021-06-15T13:00:20Z</time>
      </trkpt>
      <trkpt lat="45.33176" lon="6.11377">
        <ele>1293.78</ele>
        <time>2021-06-15T13:00:36Z</time>
      </trkpt>
      <trkpt lat="45.33187" lon="6.11377">
        <ele>1290.53</ele>
        <time>2021-06-15T13:00:50Z</time>
      </trkpt>
      <trkpt lat="45.33198" lon="6.11389">
        <ele>1287.41</ele>
        <time>2021-06-15T13:01:03Z</time>
      </trkpt>
      <trkpt lat="45.33209" lon="6.11394">
        <ele>1284.24</ele>
        <time>2021-06-15T13:01:16Z</time>
      </trkpt>
      <trkpt lat="45.33218" lon="6.114">
        <ele>1281.13</ele>
        <time>2021-06-15T13:01:28Z</time>
      </trkpt>
      <trkpt lat="45.33223" lon="6.11399">
        <ele>1280.09</ele>
        <time>2021-06-15T13:01:33Z</time>
      </trkpt>
      <trkpt lat="45.33235" lon="6.11392">
        <ele>1276.82</ele>
        <time>2021-06-15T13:01:46Z</time>
      </trkpt>
      <trkpt lat="45.33252" lon="6.114">
        <ele>1273.69</ele>
        <time>2021-06-15T13:02:08Z</time>
      </trkpt>
      <trkpt lat="45.33266" lon="6.11411">
        <ele>1270.63</ele>
        <time>2021-06-15T13:02:23Z</time>
      </trkpt>
      <trkpt lat="45.3328" lon="6.11411">
        <ele>1267.54</ele>
        <time>2021-06-15T13:02:37Z</time>
      </trkpt>
      <trkpt lat="45.33284" lon="6.1141">
        <ele>1266.24</ele>
        <time>2021-06-15T13:02:43Z</time>
      </trkpt>
      <trkpt lat="45.33295" lon="6.11417">
        <ele>1262.91</ele>
        <time>2021-06-15T13:02:58Z</time>
      </trkpt>
      <trkpt lat="45.33301" lon="6.11418">
        <ele>1259.8</ele>
        <time>2021-06-15T13:03:11Z</time>
      </trkpt>
      <trkpt lat="45.33305" lon="6.11416">
        <ele>1256.7</ele>
        <time>2021-06-15T13:03:22Z</time>
      </trkpt>
      <trkpt lat="45.33314" lon="6.11422">
        <ele>1253.72</ele>
        <time>2021-06-15T13:03:34Z</time>
      </trkpt>
      <trkpt lat="45.33326" lon="6.11419">
        <ele>1250.29</ele>
        <time>2021-06-15T13:03:49Z</time>
      </trkpt>
      <trkpt lat="45.3334" lon="6.11417">
        <ele>1247.98</ele>
        <time>2021-06-15T13:04:21Z</time>
      </trkpt>
      <trkpt lat="45.3335" lon="6.11426">
        <ele>1244.83</ele>
        <time>2021-06-15T13:04:38Z</time>
      </trkpt>
      <trkpt lat="45.33355" lon="6.11429">
        <ele>1241.65</ele>
        <time>2021-06-15T13:04:50Z</time>
      </trkpt>
      <trkpt lat="45.33367" lon="6.11429">
        <ele>1238.6</ele>
        <time>2021-06-15T13:05:02Z</time>
      </trkpt>
      <trkpt lat="45.33368" lon="6.11433">
        <ele>1236.45</ele>
        <time>2021-06-15T13:05:18Z</time>
      </trkpt>
      <trkpt lat="45.33369" lon="6.11437">
        <ele>1236.26</ele>
        <time>2021-06-15T13:05:33Z</time>
      </trkpt>
      <trkpt lat="45.3337" lon="6.11438">
        <ele>1236.06</ele>
        <time>2021-06-15T13:05:45Z</time>
      </trkpt>
      <trkpt lat="45.33373" lon="6.11444">
        <ele>1235.93</ele>
        <time>2021-06-15T13:05:52Z</time>
      </trkpt>
      <trkpt lat="45.33373" lon="6.11463">
        <ele>1232.82</ele>
        <time>2021-06-15T13:06:11Z</time>
      </trkpt>
      <trkpt lat="45.33372" lon="6.11474">
        <ele>1229.59</ele>
        <time>2021-06-15T13:06:25Z</time>
      </trkpt>
      <trkpt lat="45.33364" lon="6.11484">
        <ele>1226.66</ele>
        <time>2021-06-15T13:06:40Z</time>
      </trkpt>
      <trkpt lat="45.33356" lon="6.11494">
        <ele>1224.51</ele>
        <time>2021-06-15T13:06:49Z</time>
      </trkpt>
      <trkpt lat="45.33344" lon="6.1151">
        <ele>1221.22</ele>
        <time>2021-06-15T13:07:05Z</time>
      </trkpt>
      <trkpt lat="45.33336" lon="6.1152">
        <ele>1218.19</ele>
        <time>2021-06-15T13:07:16Z</time>
      </trkpt>
      <trkpt lat="45.33323" lon="6.1153">
        <ele>1215.81</ele>
        <time>2021-06-15T13:07:27Z</time>
      </trkpt>
      <trkpt lat="45.33317" lon="6.11537">
        <ele>1212.38</ele>
        <time>2021-06-15T13:07:41Z</time>
      </trkpt>
      <trkpt lat="45.3331" lon="6.11547">
        <ele>1209.25</ele>
        <time>2021-06-15T13:07:53Z</time>
      </trkpt>
      <trkpt lat="45.33304" lon="6.11561">
        <ele>1205.9</ele>
        <time>2021-06-15T13:08:04Z</time>
      </trkpt>
      <trkpt lat="45.33301" lon="6.11561">
        <ele>1205.06</ele>
        <time>2021-06-15T13:08:06Z</time>
      </trkpt>
      <trkpt lat="45.33283" lon="6.11573">
        <ele>1201.93</ele>
        <time>2021-06-15T13:08:20Z</time>
      </trkpt>
      <trkpt lat="45.33271" lon="6.11578">
        <ele>1200.47</ele>
        <time>2021-06-15T13:08:29Z</time>
      </trkpt>
      <trkpt lat="45.33245" lon="6.11581">
        <ele>1199.11</ele>
        <time>2021-06-15T13:08:49Z</time>
      </trkpt>
      <trkpt lat="45.33219" lon="6.11582">
        <ele>1197.07</ele>
        <time>2021-06-15T13:09:09Z</time>
      </trkpt>
      <trkpt lat="45.33212" lon="6.11592">
        <ele>1193.97</ele>
        <time>2021-06-15T13:09:27Z</time>
      </trkpt>
      <trkpt lat="45.332" lon="6.11592">
        <ele>1190.95</ele>
        <time>2021-06-15T13:09:42Z</time>
      </trkpt>
      <trkpt lat="45.33192" lon="6.11595">
        <ele>1188.91</ele>
        <time>2021-06-15T13:09:49Z</time>
      </trkpt>
      <trkpt lat="45.33181" lon="6.11603">
        <ele>1185.65</ele>
        <time>2021-06-15T13:10:02Z</time>
      </trkpt>
      <trkpt lat="45.33173" lon="6.11603">
        <ele>1182.39</ele>
        <time>2021-06-15T13:10:15Z</time>
      </trkpt>
      <trkpt lat="45.33169" lon="6.11605">
        <ele>1180.48</ele>
        <time>2021-06-15T13:10:23Z</time>
      </trkpt>
      <trkpt lat="45.33169" lon="6.1161">
        <ele>1177.01</ele>
        <time>2021-06-15T13:10:37Z</time>
      </trkpt>
      <trkpt lat="45.33162" lon="6.11616">
        <ele>1173.88</ele>
        <time>2021-06-15T13:10:48Z</time>
      </trkpt>
      <trkpt lat="45.33154" lon="6.11623">
        <ele>1170.88</ele>
        <time>2021-06-15T13:11:00Z</time>
      </trkpt>
      <trkpt lat="45.33142" lon="6.11633">
        <ele>1167.76</ele>
        <time>2021-06-15T13:11:14Z</time>
      </trkpt>
      <trkpt lat="45.33132" lon="6.11643">
        <ele>1164.65</ele>
        <time>2021-06-15T13:11:30Z</time>
      </trkpt>
      <trkpt lat="45.33121" lon="6.11654">
        <ele>1161.47</ele>
        <time>2021-06-15T13:11:51Z</time>
      </trkpt>
      <trkpt lat="45.33121" lon="6.11658">
        <ele>1159.73</ele>
        <time>2021-06-15T13:11:58Z</time>
      </trkpt>
      <trkpt lat="45.3313" lon="6.11671">
        <ele>1156.36</ele>
        <time>2021-06-15T13:12:15Z</time>
      </trkpt>
      <trkpt lat="45.33132" lon="6.11681">
        <ele>1153.31</ele>
        <time>2021-06-15T13:12:27Z</time>
      </trkpt>
      <trkpt lat="45.33135" lon="6.11686">
        <ele>1151.78</ele>
        <time>2021-06-15T13:12:34Z</time>
      </trkpt>
      <trkpt lat="45.33145" lon="6.117">
        <ele>1148.52</ele>
        <time>2021-06-15T13:12:51Z</time>
      </trkpt>
      <trkpt lat="45.33145" lon="6.11701">
        <ele>1148.25</ele>
        <time>2021-06-15T13:12:52Z</time>
      </trkpt>
      <trkpt lat="45.33148" lon="6.11724">
        <ele>1144.94</ele>
        <time>2021-06-15T13:13:08Z</time>
      </trkpt>
      <trkpt lat="45.33153" lon="6.11743">
        <ele>1141.92</ele>
        <time>2021-06-15T13:13:21Z</time>
      </trkpt>
      <trkpt lat="45.33154" lon="6.11764">
        <ele>1138.51</ele>
        <time>2021-06-15T13:13:37Z</time>
      </trkpt>
      <trkpt lat="45.33156" lon="6.1179">
        <ele>1135.41</ele>
        <time>2021-06-15T13:14:03Z</time>
      </trkpt>
      <trkpt lat="45.33154" lon="6.11801">
        <ele>1132.16</ele>
        <time>2021-06-15T13:14:15Z</time>
      </trkpt>
      <trkpt lat="45.33148" lon="6.1182">
        <ele>1129.13</ele>
        <time>2021-06-15T13:14:30Z</time>
      </trkpt>
      <trkpt lat="45.33139" lon="6.11835">
        <ele>1125.97</ele>
        <time>2021-06-15T13:14:45Z</time>
      </trkpt>
      <trkpt lat="45.33137" lon="6.11846">
        <ele>1122.84</ele>
        <time>2021-06-15T13:14:58Z</time>
      </trkpt>
      <trkpt lat="45.3314" lon="6.11865">
        <ele>1119.76</ele>
        <time>2021-06-15T13:15:13Z</time>
      </trkpt>
      <trkpt lat="45.33139" lon="6.11876">
        <ele>1116.61</ele>
        <time>2021-06-15T13:15:23Z</time>
      </trkpt>
      <trkpt lat="45.33137" lon="6.11888">
        <ele>1113.53</ele>
        <time>2021-06-15T13:15:34Z</time>
      </trkpt>
      <trkpt lat="45.33129" lon="6.11902">
        <ele>1110.09</ele>
        <time>2021-06-15T13:15:48Z</time>
      </trkpt>
      <trkpt lat="45.3313" lon="6.11903">
        <ele>1109.47</ele>
        <time>2021-06-15T13:15:50Z</time>
      </trkpt>
      <trkpt lat="45.33129" lon="6.11917">
        <ele>1106.25</ele>
        <time>2021-06-15T13:16:05Z</time>
      </trkpt>
      <trkpt lat="45.3313" lon="6.11925">
        <ele>1104.43</ele>
        <time>2021-06-15T13:16:13Z</time>
      </trkpt>
      <trkpt lat="45.33118" lon="6.11947">
        <ele>1101.47</ele>
        <time>2021-06-15T13:16:32Z</time>
      </trkpt>
      <trkpt lat="45.33112" lon="6.11954">
        <ele>1099.74</ele>
        <time>2021-06-15T13:16:57Z</time>
      </trkpt>
      <trkpt lat="45.33109" lon="6.1194">
        <ele>1099.39</ele>
        <time>2021-06-15T13:17:18Z</time>
      </trkpt>
      <trkpt lat="45.33114" lon="6.11939">
        <ele>1099.62</ele>
        <time>2021-06-15T13:17:50Z</time>
      </trkpt>
      <trkpt lat="45.3312" lon="6.11942">
        <ele>1099.51</ele>
        <time>2021-06-15T13:18:01Z</time>
      </trkpt>
      <trkpt lat="45.33123" lon="6.11951">
        <ele>1099.24</ele>
        <time>2021-06-15T13:18:25Z</time>
      </trkpt>
      <trkpt lat="45.33126" lon="6.11948">
        <ele>1099.09</ele>
        <time>2021-06-15T13:19:00Z</time>
      </trkpt>
      <trkpt lat="45.33123" lon="6.11948">
        <ele>1098.9</ele>
        <time>2021-06-15T13:19:36Z</time>
      </trkpt>
      <trkpt lat="45.33122" lon="6.1195">
        <ele>1098.9</ele>
        <time>2021-06-15T13:19:38Z</time>
      </trkpt>
      <trkpt lat="45.33129" lon="6.1195">
        <ele>1098.38</ele>
        <time>2021-06-15T13:20:12Z</time>
      </trkpt>
      <trkpt lat="45.33148" lon="6.11949">
        <ele>1095.39</ele>
        <time>2021-06-15T13:20:37Z</time>
      </trkpt>
      <trkpt lat="45.33173" lon="6.11958">
        <ele>1093.64</ele>
        <time>2021-06-15T13:20:57Z</time>
      </trkpt>
      <trkpt lat="45.33196" lon="6.11971">
        <ele>1091.85</ele>
        <time>2021-06-15T13:21:19Z</time>
      </trkpt>
      <trkpt lat="45.33204" lon="6.11989">
        <ele>1090.51</ele>
        <time>2021-06-15T13:21:37Z</time>
      </trkpt>
      <trkpt lat="45.33207" lon="6.11992">
        <ele>1090.23</ele>
        <time>2021-06-15T13:21:44Z</time>
      </trkpt>
      <trkpt lat="45.33228" lon="6.12007">
        <ele>1089.61</ele>
        <time>2021-06-15T13:22:12Z</time>
      </trkpt>
      <trkpt lat="45.33254" lon="6.12032">
        <ele>1089.37</ele>
        <time>2021-06-15T13:22:36Z</time>
      </trkpt>
      <trkpt lat="45.33255" lon="6.12036">
        <ele>1089.37</ele>
        <time>2021-06-15T13:22:38Z</time>
      </trkpt>
      <trkpt lat="45.33265" lon="6.12051">
        <ele>1089.98</ele>
        <time>2021-06-15T13:22:50Z</time>
      </trkpt>
      <trkpt lat="45.33271" lon="6.12057">
        <ele>1090.7</ele>
        <time>2021-06-15T13:23:00Z</time>
      </trkpt>
      <trkpt lat="45.33277" lon="6.12058">
        <ele>1091.9</ele>
        <time>2021-06-15T13:23:11Z</time>
      </trkpt>
      <trkpt lat="45.33297" lon="6.12052">
        <ele>1094.19</ele>
        <time>2021-06-15T13:23:31Z</time>
      </trkpt>
      <trkpt lat="45.33303" lon="6.12053">
        <ele>1094.68</ele>
        <time>2021-06-15T13:23:36Z</time>
      </trkpt>
      <trkpt lat="45.33318" lon="6.12052">
        <ele>1095.94</ele>
        <time>2021-06-15T13:23:50Z</time>
      </trkpt>
      <trkpt lat="45.33334" lon="6.12043">
        <ele>1096.17</ele>
        <time>2021-06-15T13:24:06Z</time>
      </trkpt>
      <trkpt lat="45.33351" lon="6.12032">
        <ele>1096.66</ele>
        <time>2021-06-15T13:24:25Z</time>
      </trkpt>
      <trkpt lat="45.33367" lon="6.1202">
        <ele>1096.53</ele>
        <time>2021-06-15T13:24:41Z</time>
      </trkpt>
      <trkpt lat="45.33386" lon="6.12012">
        <ele>1096.68</ele>
        <time>2021-06-15T13:24:58Z</time>
      </trkpt>
      <trkpt lat="45.33402" lon="6.12001">
        <ele>1097.15</ele>
        <time>2021-06-15T13:25:14Z</time>
      </trkpt>
      <trkpt lat="45.33423" lon="6.11986">
        <ele>1097.28</ele>
        <time>2021-06-15T13:25:34Z</time>
      </trkpt>
      <trkpt lat="45.33445" lon="6.11982">
        <ele>1097.81</ele>
        <time>2021-06-15T13:25:53Z</time>
      </trkpt>
      <trkpt lat="45.33461" lon="6.11985">
        <ele>1097.85</ele>
        <time>2021-06-15T13:26:09Z</time>
      </trkpt>
      <trkpt lat="45.33465" lon="6.11989">
        <ele>1097.81</ele>
        <time>2021-06-15T13:26:13Z</time>
      </trkpt>
      <trkpt lat="45.33475" lon="6.12016">
        <ele>1097</ele>
        <time>2021-06-15T13:26:32Z</time>
      </trkpt>
      <trkpt lat="45.33476" lon="6.12019">
        <ele>1096.69</ele>
        <time>2021-06-15T13:26:35Z</time>
      </trkpt>
      <trkpt lat="45.33481" lon="6.12022">
        <ele>1096.6</ele>
        <time>2021-06-15T13:26:39Z</time>
      </trkpt>
      <trkpt lat="45.33487" lon="6.12025">
        <ele>1096.61</ele>
        <time>2021-06-15T13:26:47Z</time>
      </trkpt>
      <trkpt lat="45.33492" lon="6.12021">
        <ele>1096.71</ele>
        <time>2021-06-15T13:26:51Z</time>
      </trkpt>
      <trkpt lat="45.33503" lon="6.11994">
        <ele>1097.55</ele>
        <time>2021-06-15T13:27:09Z</time>
      </trkpt>
      <trkpt lat="45.33517" lon="6.11977">
        <ele>1097.87</ele>
        <time>2021-06-15T13:27:27Z</time>
      </trkpt>
      <trkpt lat="45.33523" lon="6.11973">
        <ele>1097.38</ele>
        <time>2021-06-15T13:27:35Z</time>
      </trkpt>
      <trkpt lat="45.3353" lon="6.11967">
        <ele>1096.91</ele>
        <time>2021-06-15T13:27:43Z</time>
      </trkpt>
      <trkpt lat="45.33542" lon="6.11968">
        <ele>1095.46</ele>
        <time>2021-06-15T13:28:04Z</time>
      </trkpt>
      <trkpt lat="45.33541" lon="6.11967">
        <ele>1095.26</ele>
        <time>2021-06-15T13:28:39Z</time>
      </trkpt>
      <trkpt lat="45.3354" lon="6.11968">
        <ele>1095.2</ele>
        <time>2021-06-15T13:28:43Z</time>
      </trkpt>
      <trkpt lat="45.33541" lon="6.11968">
        <ele>1095.39</ele>
        <time>2021-06-15T13:29:19Z</time>
      </trkpt>
      <trkpt lat="45.33541" lon="6.1197">
        <ele>1095.33</ele>
        <time>2021-06-15T13:30:00Z</time>
      </trkpt>
      <trkpt lat="45.33542" lon="6.1197">
        <ele>1095.43</ele>
        <time>2021-06-15T13:30:33Z</time>
      </trkpt>
      <trkpt lat="45.33541" lon="6.11971">
        <ele>1095.18</ele>
        <time>2021-06-15T13:31:00Z</time>
      </trkpt>
      <trkpt lat="45.33541" lon="6.11971">
        <ele>1095.43</ele>
        <time>2021-06-15T13:31:54Z</time>
      </trkpt>
      <trkpt lat="45.33539" lon="6.11974">
        <ele>1095.45</ele>
        <time>2021-06-15T13:32:17Z</time>
      </trkpt>
      <trkpt lat="45.33539" lon="6.11974">
        <ele>1095.78</ele>
        <time>2021-06-15T13:32:53Z</time>
      </trkpt>
      <trkpt lat="45.33539" lon="6.11973">
        <ele>1095.89</ele>
        <time>2021-06-15T13:33:00Z</time>
      </trkpt>
    </trkseg>
  </trk>
</gpx>